Observation data for Lake Alan Henry on 07/11/2018      Previous  Date       Current Mesonet Observations  Soil Data  Daily Summary Page  Observations in Plain Language
KAHS 110501Z 16003KT 26/19 A301 RMK A01 T02630186  RH  063%=      5-min Rain = 0
KAHS 110502Z 16004KT 26/19 A301 RMK A01 T02620186  RH  063%=      5-min Rain = 0
KAHS 110503Z 15003KT 26/19 A301 RMK A01 T02620188  RH  064%=      5-min Rain = 0
KAHS 110504Z 15004KT 26/19 A301 RMK A01 T02620188  RH  064%=      5-min Rain = 0
KAHS 110505Z 15004KT 26/19 A301 RMK A01 T02610188  RH  064%=      5-min Rain = 0
KAHS 110506Z 15004KT 26/19 A301 RMK A01 T02610188  RH  064%=      5-min Rain = 0
KAHS 110507Z 15004KT 26/19 A301 RMK A01 T02610188  RH  064%=      5-min Rain = 0
KAHS 110508Z 15004KT 26/19 A301 RMK A01 T02610189  RH  065%=      5-min Rain = 0
KAHS 110509Z 15004KT 26/19 A301 RMK A01 T02610190  RH  065%=      5-min Rain = 0
KAHS 110510Z 15004KT 26/19 A301 RMK A01 T02610190  RH  065%=      5-min Rain = 0
KAHS 110511Z 15005KT 26/19 A301 RMK A01 T02610191  RH  065%=      5-min Rain = 0
KAHS 110512Z 15005KT 26/19 A301 RMK A01 T02610191  RH  065%=      5-min Rain = 0
KAHS 110513Z 16004KT 26/19 A301 RMK A01 T02610190  RH  065%=      5-min Rain = 0
KAHS 110514Z 16005KT 26/19 A301 RMK A01 T02610190  RH  065%=      5-min Rain = 0
KAHS 110515Z 16005KT 26/19 A301 RMK A01 T02600190  RH  065%=      5-min Rain = 0
KAHS 110516Z 16006KT 26/19 A301 RMK A01 T02600189  RH  065%=      5-min Rain = 0
KAHS 110517Z 16005KT 26/19 A301 RMK A01 T02600189  RH  065%=      5-min Rain = 0
KAHS 110518Z 16005KT 26/19 A301 RMK A01 T02610189  RH  065%=      5-min Rain = 0
KAHS 110519Z 16005KT 26/19 A301 RMK A01 T02610189  RH  065%=      5-min Rain = 0
KAHS 110520Z 16005KT 26/19 A3009 RMK A01 T02610189  RH  064%=      5-min Rain = 0
KAHS 110521Z 15006KT 26/19 A3009 RMK A01 T02600188  RH  065%=      5-min Rain = 0
KAHS 110522Z 16005KT 26/19 A3009 RMK A01 T02600188  RH  065%=      5-min Rain = 0
KAHS 110523Z 16005KT 26/19 A3009 RMK A01 T02600188  RH  064%=      5-min Rain = 0
KAHS 110524Z 16004KT 26/19 A3009 RMK A01 T02600188  RH  064%=      5-min Rain = 0
KAHS 110525Z 18004KT 26/19 A3009 RMK A01 T02590188  RH  065%=      5-min Rain = 0
KAHS 110526Z 16004KT 26/19 A301 RMK A01 T02590188  RH  065%=      5-min Rain = 0
KAHS 110527Z 18004KT 26/19 A301 RMK A01 T02580187  RH  065%=      5-min Rain = 0
KAHS 110528Z 17004KT 26/19 A301 RMK A01 T02580187  RH  065%=      5-min Rain = 0
KAHS 110529Z 16004KT 26/19 A301 RMK A01 T02580187  RH  065%=      5-min Rain = 0
KAHS 110530Z 17004KT 26/19 A301 RMK A01 T02570187  RH  065%=      5-min Rain = 0
KAHS 110531Z 16003KT 26/19 A301 RMK A01 T02570188  RH  065%=      5-min Rain = 0
KAHS 110532Z 15004KT 26/19 A301 RMK A01 T02570188  RH  066%=      5-min Rain = 0
KAHS 110533Z 15004KT 26/19 A301 RMK A01 T02570188  RH  066%=      5-min Rain = 0
KAHS 110534Z 15004KT 26/19 A301 RMK A01 T02570188  RH  066%=      5-min Rain = 0
KAHS 110535Z 14004KT 26/19 A301 RMK A01 T02560188  RH  066%=      5-min Rain = 0
KAHS 110536Z 14005KT 26/19 A301 RMK A01 T02560189  RH  066%=      5-min Rain = 0
KAHS 110537Z 14004KT 26/19 A301 RMK A01 T02560190  RH  067%=      5-min Rain = 0
KAHS 110538Z 15004KT 26/19 A301 RMK A01 T02560190  RH  067%=      5-min Rain = 0
KAHS 110539Z 15003KT 26/19 A301 RMK A01 T02550190  RH  067%=      5-min Rain = 0
KAHS 110540Z 15004KT 26/19 A301 RMK A01 T02550190  RH  067%=      5-min Rain = 0
KAHS 110541Z 15003KT 26/19 A301 RMK A01 T02550190  RH  067%=      5-min Rain = 0
KAHS 110542Z 14003KT 26/19 A301 RMK A01 T02550190  RH  067%=      5-min Rain = 0
KAHS 110543Z 12004KT 26/19 A301 RMK A01 T02550190  RH  068%=      5-min Rain = 0
KAHS 110544Z 11004KT 26/19 A301 RMK A01 T02550191  RH  068%=      5-min Rain = 0
KAHS 110545Z 11004KT 26/19 A301 RMK A01 T02550191  RH  068%=      5-min Rain = 0
KAHS 110546Z 09004KT 26/19 A301 RMK A01 T02550190  RH  067%=      5-min Rain = 0
KAHS 110547Z 10004KT 25/19 A301 RMK A01 T02540190  RH  068%=      5-min Rain = 0
KAHS 110548Z 10004KT 25/19 A301 RMK A01 T02540189  RH  067%=      5-min Rain = 0
KAHS 110549Z 11004KT 25/19 A301 RMK A01 T02540189  RH  067%=      5-min Rain = 0
KAHS 110550Z 11004KT 25/19 A301 RMK A01 T02540189  RH  067%=      5-min Rain = 0
KAHS 110551Z 11004KT 25/19 A301 RMK A01 T02540188  RH  067%=      5-min Rain = 0
KAHS 110552Z 12004KT 25/19 A301 RMK A01 T02540188  RH  067%=      5-min Rain = 0
KAHS 110553Z 12005KT 25/19 A301 RMK A01 T02540187  RH  066%=      5-min Rain = 0
KAHS 110554Z 13007KT 25/19 A301 RMK A01 T02540187  RH  066%=      5-min Rain = 0
KAHS 110555Z 12005KT 26/19 A301 RMK A01 T02550187  RH  066%=      5-min Rain = 0
KAHS 110556Z 13007KT 26/19 A301 RMK A01 T02550187  RH  066%=      5-min Rain = 0
KAHS 110557Z 13008KT 26/19 A301 RMK A01 T02550187  RH  066%=      5-min Rain = 0
KAHS 110558Z 13006KT 26/19 A301 RMK A01 T02560188  RH  066%=      5-min Rain = 0
KAHS 110559Z 13006KT 26/19 A301 RMK A01 T02560188  RH  066%=      5-min Rain = 0
KAHS 110600Z 13005KT 26/19 A301 RMK A01 T02560188  RH  066%=      5-min Rain = 0
KAHS 110601Z 13006KT 26/19 A301 RMK A01 T02550188  RH  066%=      5-min Rain = 0
KAHS 110602Z 13006KT 26/19 A301 RMK A01 T02550188  RH  066%=      5-min Rain = 0
KAHS 110603Z 13006KT 26/19 A301 RMK A01 T02550189  RH  067%=      5-min Rain = 0
KAHS 110604Z 13005KT 26/19 A301 RMK A01 T02550189  RH  067%=      5-min Rain = 0
KAHS 110605Z 12005KT 26/19 A301 RMK A01 T02550188  RH  067%=      5-min Rain = 0
KAHS 110606Z 13004KT 26/19 A301 RMK A01 T02550188  RH  067%=      5-min Rain = 0
KAHS 110607Z 14004KT 25/19 A301 RMK A01 T02540189  RH  067%=      5-min Rain = 0
KAHS 110608Z 13005KT 25/19 A301 RMK A01 T02540189  RH  067%=      5-min Rain = 0
KAHS 110609Z 12005KT 25/19 A301 RMK A01 T02540189  RH  067%=      5-min Rain = 0
KAHS 110610Z 12003KT 25/19 A301 RMK A01 T02530188  RH  067%=      5-min Rain = 0
KAHS 110611Z 13004KT 25/19 A301 RMK A01 T02530188  RH  067%=      5-min Rain = 0
KAHS 110612Z 13005KT 25/19 A301 RMK A01 T02520188  RH  068%=      5-min Rain = 0
KAHS 110613Z 13005KT 25/19 A301 RMK A01 T02520189  RH  068%=      5-min Rain = 0
KAHS 110614Z 13005KT 25/19 A301 RMK A01 T02520189  RH  068%=      5-min Rain = 0
KAHS 110615Z 13006KT 25/19 A301 RMK A01 T02520189  RH  068%=      5-min Rain = 0
KAHS 110616Z 12005KT 25/19 A301 RMK A01 T02520189  RH  068%=      5-min Rain = 0
KAHS 110617Z 13006KT 25/19 A301 RMK A01 T02520189  RH  068%=      5-min Rain = 0
KAHS 110618Z 12004KT 25/19 A301 RMK A01 T02520189  RH  068%=      5-min Rain = 0
KAHS 110619Z 13004KT 25/19 A301 RMK A01 T02520189  RH  068%=      5-min Rain = 0
KAHS 110620Z 12004KT 25/19 A301 RMK A01 T02510189  RH  068%=      5-min Rain = 0
KAHS 110621Z 13004KT 25/19 A301 RMK A01 T02510189  RH  068%=      5-min Rain = 0
KAHS 110622Z 12004KT 25/19 A301 RMK A01 T02510189  RH  069%=      5-min Rain = 0
KAHS 110623Z 12004KT 25/19 A301 RMK A01 T02510189  RH  069%=      5-min Rain = 0
KAHS 110624Z 12003KT 25/19 A301 RMK A01 T02500189  RH  069%=      5-min Rain = 0
KAHS 110625Z 12003KT 25/19 A301 RMK A01 T02500189  RH  069%=      5-min Rain = 0
KAHS 110626Z 13004KT 25/19 A301 RMK A01 T02500190  RH  069%=      5-min Rain = 0
KAHS 110627Z 12004KT 25/19 A301 RMK A01 T02500190  RH  069%=      5-min Rain = 0
KAHS 110628Z 12003KT 25/19 A301 RMK A01 T02500189  RH  069%=      5-min Rain = 0
KAHS 110629Z 11003KT 25/19 A301 RMK A01 T02490189  RH  069%=      5-min Rain = 0
KAHS 110630Z 11003KT 25/19 A301 RMK A01 T02490189  RH  069%=      5-min Rain = 0
KAHS 110631Z 11003KT 25/19 A301 RMK A01 T02490189  RH  069%=      5-min Rain = 0
KAHS 110632Z 11003KT 25/19 A301 RMK A01 T02480189  RH  070%=      5-min Rain = 0
KAHS 110633Z 11003KT 25/19 A301 RMK A01 T02480189  RH  070%=      5-min Rain = 0
KAHS 110634Z 10003KT 25/19 A301 RMK A01 T02480189  RH  070%=      5-min Rain = 0
KAHS 110635Z 10003KT 25/19 A301 RMK A01 T02480189  RH  070%=      5-min Rain = 0
KAHS 110636Z 10004KT 25/19 A301 RMK A01 T02480190  RH  070%=      5-min Rain = 0
KAHS 110637Z 10003KT 25/19 A301 RMK A01 T02480190  RH  070%=      5-min Rain = 0
KAHS 110638Z 10004KT 25/19 A301 RMK A01 T02470189  RH  070%=      5-min Rain = 0
KAHS 110639Z 10004KT 25/19 A301 RMK A01 T02460189  RH  070%=      5-min Rain = 0
KAHS 110640Z 10004KT 25/19 A301 RMK A01 T02460190  RH  071%=      5-min Rain = 0
KAHS 110641Z 11003KT 25/19 A301 RMK A01 T02460190  RH  071%=      5-min Rain = 0
KAHS 110642Z 11004KT 25/19 A301 RMK A01 T02460189  RH  071%=      5-min Rain = 0
KAHS 110643Z 11003KT 25/19 A301 RMK A01 T02460190  RH  071%=      5-min Rain = 0
KAHS 110644Z 11004KT 25/19 A301 RMK A01 T02450189  RH  071%=      5-min Rain = 0
KAHS 110645Z 11003KT 25/19 A301 RMK A01 T02450189  RH  071%=      5-min Rain = 0
KAHS 110646Z 11003KT 25/19 A301 RMK A01 T02450189  RH  071%=      5-min Rain = 0
KAHS 110647Z 11003KT 25/19 A301 RMK A01 T02450189  RH  071%=      5-min Rain = 0
KAHS 110648Z 11003KT 24/19 A301 RMK A01 T02440189  RH  071%=      5-min Rain = 0
KAHS 110649Z 12003KT 24/19 A301 RMK A01 T02440189  RH  071%=      5-min Rain = 0
KAHS 110650Z 13003KT 24/19 A301 RMK A01 T02440189  RH  071%=      5-min Rain = 0
KAHS 110651Z 12003KT 24/19 A301 RMK A01 T02440189  RH  072%=      5-min Rain = 0
KAHS 110652Z 12003KT 24/19 A301 RMK A01 T02440190  RH  072%=      5-min Rain = 0
KAHS 110653Z 12003KT 24/19 A301 RMK A01 T02430189  RH  072%=      5-min Rain = 0
KAHS 110654Z 13003KT 24/19 A301 RMK A01 T02430189  RH  072%=      5-min Rain = 0
KAHS 110655Z 13003KT 24/19 A301 RMK A01 T02430190  RH  072%=      5-min Rain = 0
KAHS 110656Z 13003KT 24/19 A301 RMK A01 T02430190  RH  072%=      5-min Rain = 0
KAHS 110657Z 13003KT 24/19 A301 RMK A01 T02430190  RH  072%=      5-min Rain = 0
KAHS 110658Z 13003KT 24/19 A301 RMK A01 T02430190  RH  072%=      5-min Rain = 0
KAHS 110659Z 13003KT 24/19 A301 RMK A01 T02420190  RH  072%=      5-min Rain = 0
KAHS 110700Z 13003KT 24/19 A301 RMK A01 T02420189  RH  072%=      5-min Rain = 0
KAHS 110701Z 13004KT 24/19 A301 RMK A01 T02420190  RH  073%=      5-min Rain = 0
KAHS 110702Z 13004KT 24/19 A301 RMK A01 T02420190  RH  073%=      5-min Rain = 0
KAHS 110703Z 13004KT 24/19 A301 RMK A01 T02420190  RH  073%=      5-min Rain = 0
KAHS 110704Z 13005KT 24/19 A301 RMK A01 T02420190  RH  073%=      5-min Rain = 0
KAHS 110705Z 13004KT 24/19 A301 RMK A01 T02420190  RH  073%=      5-min Rain = 0
KAHS 110706Z 13004KT 24/19 A301 RMK A01 T02420190  RH  073%=      5-min Rain = 0
KAHS 110707Z 13004KT 24/19 A301 RMK A01 T02410190  RH  073%=      5-min Rain = 0
KAHS 110708Z 13004KT 24/19 A301 RMK A01 T02410190  RH  073%=      5-min Rain = 0
KAHS 110709Z 13004KT 24/19 A301 RMK A01 T02410190  RH  073%=      5-min Rain = 0
KAHS 110710Z 13004KT 24/19 A301 RMK A01 T02400190  RH  073%=      5-min Rain = 0
KAHS 110711Z 14005KT 24/19 A301 RMK A01 T02400190  RH  074%=      5-min Rain = 0
KAHS 110712Z 14005KT 24/19 A301 RMK A01 T02400190  RH  074%=      5-min Rain = 0
KAHS 110713Z 14005KT 24/19 A301 RMK A01 T02400191  RH  074%=      5-min Rain = 0
KAHS 110714Z 14005KT 24/19 A301 RMK A01 T02400191  RH  074%=      5-min Rain = 0
KAHS 110715Z 14005KT 24/19 A301 RMK A01 T02400191  RH  074%=      5-min Rain = 0
KAHS 110716Z 14005KT 24/19 A301 RMK A01 T02400191  RH  074%=      5-min Rain = 0
KAHS 110717Z 14004KT 24/19 A301 RMK A01 T02400191  RH  074%=      5-min Rain = 0
KAHS 110718Z 15004KT 24/19 A301 RMK A01 T02390191  RH  074%=      5-min Rain = 0
KAHS 110719Z 15004KT 24/19 A301 RMK A01 T02390191  RH  074%=      5-min Rain = 0
KAHS 110720Z 15003KT 24/19 A301 RMK A01 T02390191  RH  075%=      5-min Rain = 0
KAHS 110721Z 16003KT 24/19 A301 RMK A01 T02380191  RH  075%=      5-min Rain = 0
KAHS 110722Z 15003KT 24/19 A3009 RMK A01 T02380191  RH  075%=      5-min Rain = 0
KAHS 110723Z 16003KT 24/19 A3009 RMK A01 T02370191  RH  075%=      5-min Rain = 0
KAHS 110724Z 16003KT 24/19 A3009 RMK A01 T02370191  RH  076%=      5-min Rain = 0
KAHS 110725Z 15003KT 24/19 A3009 RMK A01 T02360192  RH  076%=      5-min Rain = 0
KAHS 110726Z 16003KT 24/19 A3009 RMK A01 T02360191  RH  076%=      5-min Rain = 0
KAHS 110727Z 16003KT 24/19 A3009 RMK A01 T02360192  RH  076%=      5-min Rain = 0
KAHS 110728Z 17003KT 24/19 A3009 RMK A01 T02360192  RH  076%=      5-min Rain = 0
KAHS 110729Z 17002KT 24/19 A3009 RMK A01 T02360192  RH  076%=      5-min Rain = 0
KAHS 110730Z 17002KT 24/19 A3009 RMK A01 T02350191  RH  076%=      5-min Rain = 0
KAHS 110731Z 18002KT 24/19 A3009 RMK A01 T02350191  RH  076%=      5-min Rain = 0
KAHS 110732Z 20002KT 23/19 A3009 RMK A01 T02340191  RH  077%=      5-min Rain = 0
KAHS 110733Z 21002KT 23/19 A3009 RMK A01 T02340192  RH  077%=      5-min Rain = 0
KAHS 110734Z 19002KT 23/19 A3009 RMK A01 T02330191  RH  077%=      5-min Rain = 0
KAHS 110735Z 19002KT 23/19 A3009 RMK A01 T02330191  RH  077%=      5-min Rain = 0
KAHS 110736Z 18002KT 23/19 A3009 RMK A01 T02320191  RH  078%=      5-min Rain = 0
KAHS 110737Z 18002KT 23/19 A3009 RMK A01 T02320191  RH  078%=      5-min Rain = 0
KAHS 110738Z 18002KT 23/19 A3009 RMK A01 T02320191  RH  078%=      5-min Rain = 0
KAHS 110739Z 18002KT 23/19 A3009 RMK A01 T02320191  RH  078%=      5-min Rain = 0
KAHS 110740Z 18003KT 23/19 A3009 RMK A01 T02320191  RH  078%=      5-min Rain = 0
KAHS 110741Z 18003KT 23/19 A3009 RMK A01 T02310191  RH  078%=      5-min Rain = 0
KAHS 110742Z 19003KT 23/19 A3009 RMK A01 T02310190  RH  078%=      5-min Rain = 0
KAHS 110743Z 19003KT 23/19 A3009 RMK A01 T02310190  RH  078%=      5-min Rain = 0
KAHS 110744Z 19003KT 23/19 A3009 RMK A01 T02310190  RH  078%=      5-min Rain = 0
KAHS 110745Z 19003KT 23/19 A3009 RMK A01 T02310190  RH  078%=      5-min Rain = 0
KAHS 110746Z 19003KT 23/19 A3009 RMK A01 T02310190  RH  078%=      5-min Rain = 0
KAHS 110747Z 18003KT 23/19 A3009 RMK A01 T02310191  RH  078%=      5-min Rain = 0
KAHS 110748Z 18004KT 23/19 A3009 RMK A01 T02310190  RH  078%=      5-min Rain = 0
KAHS 110749Z 18004KT 23/19 A3009 RMK A01 T02310190  RH  078%=      5-min Rain = 0
KAHS 110750Z 17004KT 23/19 A3009 RMK A01 T02300190  RH  078%=      5-min Rain = 0
KAHS 110751Z 17004KT 23/19 A3009 RMK A01 T02300190  RH  078%=      5-min Rain = 0
KAHS 110752Z 18003KT 23/19 A3009 RMK A01 T02300190  RH  078%=      5-min Rain = 0
KAHS 110753Z 18003KT 23/19 A3009 RMK A01 T02300189  RH  078%=      5-min Rain = 0
KAHS 110754Z 17003KT 23/19 A3009 RMK A01 T02290189  RH  078%=      5-min Rain = 0
KAHS 110755Z 17003KT 23/19 A3009 RMK A01 T02290190  RH  078%=      5-min Rain = 0
KAHS 110756Z 17003KT 23/19 A301 RMK A01 T02290190  RH  078%=      5-min Rain = 0
KAHS 110757Z 18003KT 23/19 A301 RMK A01 T02290190  RH  079%=      5-min Rain = 0
KAHS 110758Z 18003KT 23/19 A301 RMK A01 T02290190  RH  079%=      5-min Rain = 0
KAHS 110759Z 18003KT 23/19 A301 RMK A01 T02290190  RH  079%=      5-min Rain = 0
KAHS 110800Z 18003KT 23/19 A301 RMK A01 T02280189  RH  079%=      5-min Rain = 0
KAHS 110801Z 19003KT 23/19 A301 RMK A01 T02280189  RH  079%=      5-min Rain = 0
KAHS 110802Z 19003KT 23/19 A301 RMK A01 T02270189  RH  079%=      5-min Rain = 0
KAHS 110803Z 19003KT 23/19 A301 RMK A01 T02270189  RH  079%=      5-min Rain = 0
KAHS 110804Z 19002KT 23/19 A301 RMK A01 T02260189  RH  079%=      5-min Rain = 0
KAHS 110805Z 19002KT 23/19 A301 RMK A01 T02250189  RH  080%=      5-min Rain = 0
KAHS 110806Z 19002KT 23/19 A301 RMK A01 T02250189  RH  080%=      5-min Rain = 0
KAHS 110807Z 20002KT 22/19 A301 RMK A01 T02240189  RH  080%=      5-min Rain = 0
KAHS 110808Z 21001KT 22/19 A301 RMK A01 T02230188  RH  081%=      5-min Rain = 0
KAHS 110809Z 23001KT 22/19 A301 RMK A01 T02220188  RH  081%=      5-min Rain = 0
KAHS 110810Z 26001KT 22/19 A301 RMK A01 T02210187  RH  081%=      5-min Rain = 0
KAHS 110811Z 27001KT 22/19 A301 RMK A01 T02200187  RH  081%=      5-min Rain = 0
KAHS 110812Z 28001KT 22/19 A301 RMK A01 T02200187  RH  082%=      5-min Rain = 0
KAHS 110813Z 28002KT 22/19 A301 RMK A01 T02200188  RH  082%=      5-min Rain = 0
KAHS 110814Z 26002KT 22/19 A301 RMK A01 T02200188  RH  082%=      5-min Rain = 0
KAHS 110815Z 25001KT 22/19 A301 RMK A01 T02210188  RH  082%=      5-min Rain = 0
KAHS 110816Z 25002KT 22/19 A301 RMK A01 T02210188  RH  082%=      5-min Rain = 0
KAHS 110817Z 25002KT 22/19 A301 RMK A01 T02210189  RH  082%=      5-min Rain = 0
KAHS 110818Z 24002KT 22/19 A301 RMK A01 T02210189  RH  082%=      5-min Rain = 0
KAHS 110819Z 24002KT 22/19 A3009 RMK A01 T02210189  RH  082%=      5-min Rain = 0
KAHS 110820Z 25002KT 22/19 A3009 RMK A01 T02220189  RH  082%=      5-min Rain = 0
KAHS 110821Z 25003KT 22/19 A301 RMK A01 T02220189  RH  082%=      5-min Rain = 0
KAHS 110822Z 25003KT 22/19 A301 RMK A01 T02210189  RH  082%=      5-min Rain = 0
KAHS 110823Z 25003KT 22/19 A301 RMK A01 T02210189  RH  082%=      5-min Rain = 0
KAHS 110824Z 24003KT 22/19 A301 RMK A01 T02210189  RH  082%=      5-min Rain = 0
KAHS 110825Z 24003KT 22/19 A3009 RMK A01 T02210189  RH  082%=      5-min Rain = 0
KAHS 110826Z 23003KT 22/19 A3009 RMK A01 T02210189  RH  082%=      5-min Rain = 0
KAHS 110827Z 24003KT 22/19 A3009 RMK A01 T02210189  RH  082%=      5-min Rain = 0
KAHS 110828Z 23003KT 22/19 A3009 RMK A01 T02210190  RH  082%=      5-min Rain = 0
KAHS 110829Z 23003KT 22/19 A3009 RMK A01 T02220190  RH  082%=      5-min Rain = 0
KAHS 110830Z 23003KT 22/19 A3009 RMK A01 T02220190  RH  082%=      5-min Rain = 0
KAHS 110831Z 22004KT 22/19 A3009 RMK A01 T02230189  RH  081%=      5-min Rain = 0
KAHS 110832Z 22004KT 22/19 A3009 RMK A01 T02230189  RH  081%=      5-min Rain = 0
KAHS 110833Z 22003KT 22/19 A3009 RMK A01 T02230189  RH  081%=      5-min Rain = 0
KAHS 110834Z 22003KT 22/19 A3009 RMK A01 T02240189  RH  080%=      5-min Rain = 0
KAHS 110835Z 22003KT 23/19 A3009 RMK A01 T02250189  RH  080%=      5-min Rain = 0
KAHS 110836Z 22003KT 23/19 A3009 RMK A01 T02260189  RH  080%=      5-min Rain = 0
KAHS 110837Z 22003KT 23/19 A3009 RMK A01 T02260190  RH  080%=      5-min Rain = 0
KAHS 110838Z 21003KT 23/19 A3009 RMK A01 T02260190  RH  080%=      5-min Rain = 0
KAHS 110839Z 22003KT 23/19 A3009 RMK A01 T02250189  RH  080%=      5-min Rain = 0
KAHS 110840Z 21003KT 23/19 A3009 RMK A01 T02260190  RH  080%=      5-min Rain = 0
KAHS 110841Z 21003KT 23/19 A3009 RMK A01 T02260190  RH  080%=      5-min Rain = 0
KAHS 110842Z 21002KT 23/19 A3009 RMK A01 T02270190  RH  079%=      5-min Rain = 0
KAHS 110843Z 21003KT 23/19 A3009 RMK A01 T02280190  RH  079%=      5-min Rain = 0
KAHS 110844Z 21002KT 23/19 A3009 RMK A01 T02280190  RH  079%=      5-min Rain = 0
KAHS 110845Z 21002KT 23/19 A3009 RMK A01 T02280189  RH  079%=      5-min Rain = 0
KAHS 110846Z 21003KT 23/19 A3009 RMK A01 T02280189  RH  079%=      5-min Rain = 0
KAHS 110847Z 21002KT 23/19 A3009 RMK A01 T02290189  RH  079%=      5-min Rain = 0
KAHS 110848Z 21003KT 23/19 A3009 RMK A01 T02290190  RH  079%=      5-min Rain = 0
KAHS 110849Z 21003KT 23/19 A3009 RMK A01 T02280189  RH  079%=      5-min Rain = 0
KAHS 110850Z 21003KT 23/19 A3009 RMK A01 T02280189  RH  079%=      5-min Rain = 0
KAHS 110851Z 21003KT 23/19 A3009 RMK A01 T02270189  RH  079%=      5-min Rain = 0
KAHS 110852Z 21003KT 23/19 A3009 RMK A01 T02270189  RH  079%=      5-min Rain = 0
KAHS 110853Z 21003KT 23/19 A301 RMK A01 T02270189  RH  079%=      5-min Rain = 0
KAHS 110854Z 21003KT 23/19 A301 RMK A01 T02270189  RH  079%=      5-min Rain = 0
KAHS 110855Z 21003KT 23/19 A301 RMK A01 T02260189  RH  079%=      5-min Rain = 0
KAHS 110856Z 21003KT 23/19 A301 RMK A01 T02260189  RH  079%=      5-min Rain = 0
KAHS 110857Z 21003KT 23/19 A301 RMK A01 T02250188  RH  080%=      5-min Rain = 0
KAHS 110858Z 21003KT 23/19 A301 RMK A01 T02250189  RH  080%=      5-min Rain = 0
KAHS 110859Z 21003KT 23/19 A301 RMK A01 T02250188  RH  080%=      5-min Rain = 0
KAHS 110900Z 21003KT 23/19 A301 RMK A01 T02250188  RH  080%=      5-min Rain = 0
KAHS 110901Z 21003KT 23/19 A301 RMK A01 T02250188  RH  080%=      5-min Rain = 0
KAHS 110902Z 22003KT 23/19 A301 RMK A01 T02250188  RH  080%=      5-min Rain = 0
KAHS 110903Z 22003KT 22/19 A301 RMK A01 T02240188  RH  080%=      5-min Rain = 0
KAHS 110904Z 22003KT 22/19 A301 RMK A01 T02240188  RH  080%=      5-min Rain = 0
KAHS 110905Z 22002KT 22/19 A301 RMK A01 T02240188  RH  080%=      5-min Rain = 0
KAHS 110906Z 22002KT 22/19 A301 RMK A01 T02230188  RH  080%=      5-min Rain = 0
KAHS 110907Z 23002KT 22/19 A301 RMK A01 T02230187  RH  080%=      5-min Rain = 0
KAHS 110908Z 23002KT 22/19 A301 RMK A01 T02230188  RH  080%=      5-min Rain = 0
KAHS 110909Z 22003KT 22/19 A301 RMK A01 T02230188  RH  081%=      5-min Rain = 0
KAHS 110910Z 22003KT 22/19 A301 RMK A01 T02220187  RH  081%=      5-min Rain = 0
KAHS 110911Z 22003KT 22/19 A301 RMK A01 T02220187  RH  081%=      5-min Rain = 0
KAHS 110912Z 22003KT 22/19 A301 RMK A01 T02210187  RH  081%=      5-min Rain = 0
KAHS 110913Z 21003KT 22/19 A301 RMK A01 T02220188  RH  081%=      5-min Rain = 0
KAHS 110914Z 21003KT 22/19 A301 RMK A01 T02220188  RH  081%=      5-min Rain = 0
KAHS 110915Z 21004KT 22/19 A301 RMK A01 T02220187  RH  081%=      5-min Rain = 0
KAHS 110916Z 20004KT 22/19 A301 RMK A01 T02230187  RH  080%=      5-min Rain = 0
KAHS 110917Z 20004KT 22/19 A301 RMK A01 T02230187  RH  080%=      5-min Rain = 0
KAHS 110918Z 20003KT 22/19 A301 RMK A01 T02230187  RH  080%=      5-min Rain = 0
KAHS 110919Z 20003KT 22/19 A301 RMK A01 T02230187  RH  080%=      5-min Rain = 0
KAHS 110920Z 20003KT 22/19 A301 RMK A01 T02230186  RH  080%=      5-min Rain = 0
KAHS 110921Z 20003KT 22/19 A301 RMK A01 T02230186  RH  080%=      5-min Rain = 0
KAHS 110922Z 21003KT 22/19 A301 RMK A01 T02230186  RH  080%=      5-min Rain = 0
KAHS 110923Z 21003KT 22/19 A301 RMK A01 T02220186  RH  080%=      5-min Rain = 0
KAHS 110924Z 21003KT 22/19 A301 RMK A01 T02210186  RH  080%=      5-min Rain = 0
KAHS 110925Z 21003KT 22/19 A301 RMK A01 T02210186  RH  081%=      5-min Rain = 0
KAHS 110926Z 21003KT 22/19 A301 RMK A01 T02200186  RH  081%=      5-min Rain = 0
KAHS 110927Z 21003KT 22/19 A301 RMK A01 T02200185  RH  081%=      5-min Rain = 0
KAHS 110928Z 20004KT 22/19 A301 RMK A01 T02190185  RH  081%=      5-min Rain = 0
KAHS 110929Z 20003KT 22/19 A301 RMK A01 T02180185  RH  082%=      5-min Rain = 0
KAHS 110930Z 20004KT 22/19 A301 RMK A01 T02180185  RH  082%=      5-min Rain = 0
KAHS 110931Z 19004KT 22/19 A301 RMK A01 T02180185  RH  082%=      5-min Rain = 0
KAHS 110932Z 19004KT 22/19 A301 RMK A01 T02180185  RH  082%=      5-min Rain = 0
KAHS 110933Z 19004KT 22/19 A301 RMK A01 T02180185  RH  082%=      5-min Rain = 0
KAHS 110934Z 20004KT 22/19 A301 RMK A01 T02170185  RH  082%=      5-min Rain = 0
KAHS 110935Z 20004KT 22/19 A301 RMK A01 T02160185  RH  082%=      5-min Rain = 0
KAHS 110936Z 20004KT 22/19 A301 RMK A01 T02160185  RH  082%=      5-min Rain = 0
KAHS 110937Z 20004KT 22/19 A301 RMK A01 T02160185  RH  082%=      5-min Rain = 0
KAHS 110938Z 20004KT 22/19 A301 RMK A01 T02170185  RH  082%=      5-min Rain = 0
KAHS 110939Z 20004KT 22/18 A301 RMK A01 T02170184  RH  082%=      5-min Rain = 0
KAHS 110940Z 20004KT 22/18 A301 RMK A01 T02170184  RH  082%=      5-min Rain = 0
KAHS 110941Z 20004KT 22/18 A301 RMK A01 T02170184  RH  082%=      5-min Rain = 0
KAHS 110942Z 20004KT 22/18 A301 RMK A01 T02170184  RH  081%=      5-min Rain = 0
KAHS 110943Z 20003KT 22/18 A301 RMK A01 T02170183  RH  081%=      5-min Rain = 0
KAHS 110944Z 20003KT 22/18 A301 RMK A01 T02170183  RH  081%=      5-min Rain = 0
KAHS 110945Z 20003KT 22/18 A301 RMK A01 T02170183  RH  081%=      5-min Rain = 0
KAHS 110946Z 21003KT 22/18 A301 RMK A01 T02170183  RH  081%=      5-min Rain = 0
KAHS 110947Z 21003KT 22/18 A301 RMK A01 T02170183  RH  081%=      5-min Rain = 0
KAHS 110948Z 21003KT 22/18 A301 RMK A01 T02170183  RH  081%=      5-min Rain = 0
KAHS 110949Z 21003KT 22/18 A301 RMK A01 T02170183  RH  081%=      5-min Rain = 0
KAHS 110950Z 21004KT 22/18 A301 RMK A01 T02170183  RH  081%=      5-min Rain = 0
KAHS 110951Z 22004KT 22/18 A301 RMK A01 T02170183  RH  081%=      5-min Rain = 0
KAHS 110952Z 21004KT 22/18 A301 RMK A01 T02180184  RH  081%=      5-min Rain = 0
KAHS 110953Z 21004KT 22/18 A301 RMK A01 T02190183  RH  080%=      5-min Rain = 0
KAHS 110954Z 21004KT 22/18 A301 RMK A01 T02190183  RH  080%=      5-min Rain = 0
KAHS 110955Z 21003KT 22/18 A301 RMK A01 T02190183  RH  080%=      5-min Rain = 0
KAHS 110956Z 22003KT 22/18 A301 RMK A01 T02190183  RH  080%=      5-min Rain = 0
KAHS 110957Z 22004KT 22/18 A301 RMK A01 T02200183  RH  080%=      5-min Rain = 0
KAHS 110958Z 22004KT 22/18 A301 RMK A01 T02200183  RH  079%=      5-min Rain = 0
KAHS 110959Z 21004KT 22/18 A301 RMK A01 T02200182  RH  079%=      5-min Rain = 0
KAHS 111000Z 21004KT 22/18 A301 RMK A01 T02210182  RH  079%=      5-min Rain = 0
KAHS 111001Z 21004KT 22/18 A301 RMK A01 T02210182  RH  079%=      5-min Rain = 0
KAHS 111002Z 20004KT 22/18 A301 RMK A01 T02210182  RH  078%=      5-min Rain = 0
KAHS 111003Z 20004KT 22/18 A301 RMK A01 T02210182  RH  078%=      5-min Rain = 0
KAHS 111004Z 20004KT 22/18 A301 RMK A01 T02210182  RH  078%=      5-min Rain = 0
KAHS 111005Z 20004KT 22/18 A301 RMK A01 T02210182  RH  078%=      5-min Rain = 0
KAHS 111006Z 20004KT 22/18 A301 RMK A01 T02210181  RH  078%=      5-min Rain = 0
KAHS 111007Z 20004KT 22/18 A301 RMK A01 T02210181  RH  078%=      5-min Rain = 0
KAHS 111008Z 20004KT 22/18 A301 RMK A01 T02210181  RH  078%=      5-min Rain = 0
KAHS 111009Z 20004KT 22/18 A301 RMK A01 T02220181  RH  078%=      5-min Rain = 0
KAHS 111010Z 21004KT 22/18 A301 RMK A01 T02220181  RH  077%=      5-min Rain = 0
KAHS 111011Z 20004KT 22/18 A301 RMK A01 T02220181  RH  077%=      5-min Rain = 0
KAHS 111012Z 20004KT 22/18 A301 RMK A01 T02220180  RH  077%=      5-min Rain = 0
KAHS 111013Z 19004KT 22/18 A301 RMK A01 T02230180  RH  077%=      5-min Rain = 0
KAHS 111014Z 20004KT 22/18 A301 RMK A01 T02230180  RH  077%=      5-min Rain = 0
KAHS 111015Z 20004KT 22/18 A301 RMK A01 T02230181  RH  077%=      5-min Rain = 0
KAHS 111016Z 20005KT 22/18 A301 RMK A01 T02230181  RH  077%=      5-min Rain = 0
KAHS 111017Z 20005KT 22/18 A301 RMK A01 T02230180  RH  076%=      5-min Rain = 0
KAHS 111018Z 20004KT 22/18 A3009 RMK A01 T02240180  RH  076%=      5-min Rain = 0
KAHS 111019Z 20005KT 22/18 A3009 RMK A01 T02240180  RH  076%=      5-min Rain = 0
KAHS 111020Z 21005KT 22/18 A3009 RMK A01 T02240179  RH  076%=      5-min Rain = 0
KAHS 111021Z 21004KT 22/18 A3009 RMK A01 T02230179  RH  076%=      5-min Rain = 0
KAHS 111022Z 21004KT 22/18 A3009 RMK A01 T02230179  RH  076%=      5-min Rain = 0
KAHS 111023Z 21004KT 22/18 A3009 RMK A01 T02230179  RH  076%=      5-min Rain = 0
KAHS 111024Z 21005KT 22/18 A3009 RMK A01 T02230179  RH  076%=      5-min Rain = 0
KAHS 111025Z 21004KT 22/18 A3009 RMK A01 T02230179  RH  076%=      5-min Rain = 0
KAHS 111026Z 21004KT 22/18 A3009 RMK A01 T02230178  RH  076%=      5-min Rain = 0
KAHS 111027Z 21004KT 22/18 A3009 RMK A01 T02230178  RH  076%=      5-min Rain = 0
KAHS 111028Z 21005KT 22/18 A3009 RMK A01 T02230178  RH  076%=      5-min Rain = 0
KAHS 111029Z 21004KT 22/18 A3009 RMK A01 T02230178  RH  076%=      5-min Rain = 0
KAHS 111030Z 22004KT 22/18 A3009 RMK A01 T02220178  RH  076%=      5-min Rain = 0
KAHS 111031Z 22004KT 22/18 A3009 RMK A01 T02220178  RH  076%=      5-min Rain = 0
KAHS 111032Z 22005KT 22/18 A3009 RMK A01 T02220178  RH  076%=      5-min Rain = 0
KAHS 111033Z 22004KT 22/18 A3009 RMK A01 T02220178  RH  076%=      5-min Rain = 0
KAHS 111034Z 22005KT 22/18 A3009 RMK A01 T02220177  RH  076%=      5-min Rain = 0
KAHS 111035Z 22005KT 22/18 A3009 RMK A01 T02220177  RH  076%=      5-min Rain = 0
KAHS 111036Z 22004KT 22/18 A3009 RMK A01 T02220177  RH  076%=      5-min Rain = 0
KAHS 111037Z 21004KT 22/18 A301 RMK A01 T02220177  RH  076%=      5-min Rain = 0
KAHS 111038Z 21004KT 22/18 A301 RMK A01 T02230177  RH  075%=      5-min Rain = 0
KAHS 111039Z 21004KT 22/18 A301 RMK A01 T02230176  RH  075%=      5-min Rain = 0
KAHS 111040Z 21004KT 22/18 A301 RMK A01 T02230176  RH  075%=      5-min Rain = 0
KAHS 111041Z 22004KT 22/18 A301 RMK A01 T02230176  RH  075%=      5-min Rain = 0
KAHS 111042Z 22003KT 22/18 A301 RMK A01 T02230176  RH  075%=      5-min Rain = 0
KAHS 111043Z 22002KT 22/18 A301 RMK A01 T02220176  RH  075%=      5-min Rain = 0
KAHS 111044Z 23002KT 22/18 A301 RMK A01 T02220176  RH  075%=      5-min Rain = 0
KAHS 111045Z 24002KT 22/18 A301 RMK A01 T02220176  RH  075%=      5-min Rain = 0
KAHS 111046Z 23002KT 22/18 A301 RMK A01 T02210176  RH  076%=      5-min Rain = 0
KAHS 111047Z 24002KT 22/18 A301 RMK A01 T02200176  RH  076%=      5-min Rain = 0
KAHS 111048Z 24003KT 22/18 A301 RMK A01 T02200176  RH  076%=      5-min Rain = 0
KAHS 111049Z 24003KT 22/18 A301 RMK A01 T02200176  RH  076%=      5-min Rain = 0
KAHS 111050Z 23003KT 22/18 A301 RMK A01 T02190176  RH  076%=      5-min Rain = 0
KAHS 111051Z 23003KT 22/18 A301 RMK A01 T02190176  RH  077%=      5-min Rain = 0
KAHS 111052Z 24002KT 22/18 A301 RMK A01 T02190176  RH  077%=      5-min Rain = 0
KAHS 111053Z 24003KT 22/18 A301 RMK A01 T02180176  RH  077%=      5-min Rain = 0
KAHS 111054Z 25003KT 22/18 A301 RMK A01 T02180176  RH  077%=      5-min Rain = 0
KAHS 111055Z 25003KT 22/18 A301 RMK A01 T02170176  RH  077%=      5-min Rain = 0
KAHS 111056Z 25003KT 22/18 A301 RMK A01 T02160176  RH  078%=      5-min Rain = 0
KAHS 111057Z 26003KT 22/18 A301 RMK A01 T02160176  RH  078%=      5-min Rain = 0
KAHS 111058Z 26003KT 22/18 A301 RMK A01 T02150176  RH  078%=      5-min Rain = 0
KAHS 111059Z 27003KT 21/18 A301 RMK A01 T02140176  RH  079%=      5-min Rain = 0
KAHS 111100Z 27003KT 21/18 A301 RMK A01 T02130177  RH  080%=      5-min Rain = 0
KAHS 111101Z 27003KT 21/18 A301 RMK A01 T02130178  RH  080%=      5-min Rain = 0
KAHS 111102Z 27003KT 21/18 A301 RMK A01 T02120178  RH  081%=      5-min Rain = 0
KAHS 111103Z 27004KT 21/18 A301 RMK A01 T02120179  RH  081%=      5-min Rain = 0
KAHS 111104Z 27004KT 21/18 A301 RMK A01 T02120179  RH  081%=      5-min Rain = 0
KAHS 111105Z 27004KT 21/18 A301 RMK A01 T02120179  RH  081%=      5-min Rain = 0
KAHS 111106Z 27003KT 21/18 A301 RMK A01 T02120179  RH  081%=      5-min Rain = 0
KAHS 111107Z 27004KT 21/18 A301 RMK A01 T02110178  RH  081%=      5-min Rain = 0
KAHS 111108Z 27003KT 21/18 A301 RMK A01 T02110178  RH  082%=      5-min Rain = 0
KAHS 111109Z 27003KT 21/18 A301 RMK A01 T02100178  RH  082%=      5-min Rain = 0
KAHS 111110Z 27003KT 21/18 A301 RMK A01 T02100179  RH  082%=      5-min Rain = 0
KAHS 111111Z 27004KT 21/18 A301 RMK A01 T02100179  RH  082%=      5-min Rain = 0
KAHS 111112Z 28004KT 21/18 A301 RMK A01 T02100179  RH  082%=      5-min Rain = 0
KAHS 111113Z 27004KT 21/18 A301 RMK A01 T02100179  RH  083%=      5-min Rain = 0
KAHS 111114Z 28004KT 21/18 A301 RMK A01 T02110180  RH  083%=      5-min Rain = 0
KAHS 111115Z 27003KT 21/18 A301 RMK A01 T02110180  RH  082%=      5-min Rain = 0
KAHS 111116Z 26002KT 21/18 A301 RMK A01 T02100179  RH  082%=      5-min Rain = 0
KAHS 111117Z 26002KT 21/18 A301 RMK A01 T02100179  RH  082%=      5-min Rain = 0
KAHS 111118Z 26002KT 21/18 A301 RMK A01 T02100179  RH  083%=      5-min Rain = 0
KAHS 111119Z 26003KT 21/18 A301 RMK A01 T02090179  RH  083%=      5-min Rain = 0
KAHS 111120Z 26003KT 21/18 A301 RMK A01 T02090179  RH  083%=      5-min Rain = 0
KAHS 111121Z 26003KT 21/18 A301 RMK A01 T02090179  RH  083%=      5-min Rain = 0
KAHS 111122Z 26003KT 21/18 A301 RMK A01 T02090178  RH  082%=      5-min Rain = 0
KAHS 111123Z 26003KT 21/18 A301 RMK A01 T02090178  RH  082%=      5-min Rain = 0
KAHS 111124Z 26003KT 21/18 A301 RMK A01 T02080177  RH  083%=      5-min Rain = 0
KAHS 111125Z 26003KT 21/18 A301 RMK A01 T02080178  RH  083%=      5-min Rain = 0
KAHS 111126Z 26003KT 21/18 A301 RMK A01 T02080179  RH  083%=      5-min Rain = 0
KAHS 111127Z 26003KT 21/18 A301 RMK A01 T02080179  RH  084%=      5-min Rain = 0
KAHS 111128Z 27004KT 21/18 A301 RMK A01 T02080180  RH  084%=      5-min Rain = 0
KAHS 111129Z 27004KT 21/18 A301 RMK A01 T02090180  RH  084%=      5-min Rain = 0
KAHS 111130Z 27003KT 21/18 A301 RMK A01 T02090180  RH  084%=      5-min Rain = 0
KAHS 111131Z 26003KT 21/18 A301 RMK A01 T02090180  RH  083%=      5-min Rain = 0
KAHS 111132Z 26004KT 21/18 A301 RMK A01 T02100180  RH  083%=      5-min Rain = 0
KAHS 111133Z 26003KT 21/18 A301 RMK A01 T02100180  RH  083%=      5-min Rain = 0
KAHS 111134Z 26004KT 21/18 A301 RMK A01 T02090180  RH  083%=      5-min Rain = 0
KAHS 111135Z 26004KT 21/18 A301 RMK A01 T02090180  RH  083%=      5-min Rain = 0
KAHS 111136Z 26004KT 21/18 A301 RMK A01 T02080180  RH  084%=      5-min Rain = 0
KAHS 111137Z 26004KT 21/18 A301 RMK A01 T02080180  RH  084%=      5-min Rain = 0
KAHS 111138Z 25004KT 21/18 A301 RMK A01 T02080180  RH  084%=      5-min Rain = 0
KAHS 111139Z 25004KT 21/18 A301 RMK A01 T02080180  RH  084%=      5-min Rain = 0
KAHS 111140Z 25004KT 21/18 A301 RMK A01 T02090180  RH  084%=      5-min Rain = 0
KAHS 111141Z 25004KT 21/18 A301 RMK A01 T02080179  RH  083%=      5-min Rain = 0
KAHS 111142Z 25004KT 21/18 A301 RMK A01 T02090179  RH  083%=      5-min Rain = 0
KAHS 111143Z 25004KT 21/18 A301 RMK A01 T02090179  RH  083%=      5-min Rain = 0
KAHS 111144Z 24005KT 21/18 A301 RMK A01 T02090178  RH  083%=      5-min Rain = 0
KAHS 111145Z 24005KT 21/18 A301 RMK A01 T02090178  RH  083%=      5-min Rain = 0
KAHS 111146Z 24005KT 21/18 A301 RMK A01 T02090178  RH  082%=      5-min Rain = 0
KAHS 111147Z 23005KT 21/18 A301 RMK A01 T02090177  RH  082%=      5-min Rain = 0
KAHS 111148Z 23005KT 21/18 A301 RMK A01 T02090177  RH  082%=      5-min Rain = 0
KAHS 111149Z 23005KT 21/18 A301 RMK A01 T02090176  RH  081%=      5-min Rain = 0
KAHS 111150Z 23005KT 21/18 A301 RMK A01 T02100176  RH  081%=      5-min Rain = 0
KAHS 111151Z 23004KT 21/18 A301 RMK A01 T02100176  RH  081%=      5-min Rain = 0
KAHS 111152Z 23004KT 21/18 A301 RMK A01 T02100176  RH  081%=      5-min Rain = 0
KAHS 111153Z 23004KT 21/18 A301 RMK A01 T02090176  RH  082%=      5-min Rain = 0
KAHS 111154Z 23004KT 21/18 A301 RMK A01 T02090176  RH  082%=      5-min Rain = 0
KAHS 111155Z 23005KT 21/18 A301 RMK A01 T02090176  RH  082%=      5-min Rain = 0
KAHS 111156Z 23005KT 21/18 A301 RMK A01 T02090176  RH  081%=      5-min Rain = 0
KAHS 111157Z 23004KT 21/18 A301 RMK A01 T02090176  RH  081%=      5-min Rain = 0
KAHS 111158Z 23004KT 21/18 A301 RMK A01 T02090176  RH  081%=      5-min Rain = 0
KAHS 111159Z 23005KT 21/18 A301 RMK A01 T02090176  RH  081%=      5-min Rain = 0
KAHS 111200Z 23005KT 21/18 A301 RMK A01 T02100176  RH  081%=      5-min Rain = 0
KAHS 111201Z 23005KT 21/18 A301 RMK A01 T02100176  RH  081%=      5-min Rain = 0
KAHS 111202Z 23004KT 21/18 A301 RMK A01 T02110176  RH  080%=      5-min Rain = 0
KAHS 111203Z 23004KT 21/18 A301 RMK A01 T02110176  RH  080%=      5-min Rain = 0
KAHS 111204Z 23003KT 21/18 A301 RMK A01 T02110176  RH  081%=      5-min Rain = 0
KAHS 111205Z 23004KT 21/18 A3011 RMK A01 T02100176  RH  081%=      5-min Rain = 0
KAHS 111206Z 23004KT 21/18 A301 RMK A01 T02110176  RH  080%=      5-min Rain = 0
KAHS 111207Z 23004KT 21/18 A3011 RMK A01 T02110176  RH  080%=      5-min Rain = 0
KAHS 111208Z 23004KT 21/18 A3011 RMK A01 T02120176  RH  080%=      5-min Rain = 0
KAHS 111209Z 23003KT 21/18 A3011 RMK A01 T02120177  RH  080%=      5-min Rain = 0
KAHS 111210Z 23004KT 21/18 A3011 RMK A01 T02120176  RH  080%=      5-min Rain = 0
KAHS 111211Z 23004KT 21/18 A3011 RMK A01 T02120176  RH  080%=      5-min Rain = 0
KAHS 111212Z 23004KT 21/18 A3011 RMK A01 T02120176  RH  080%=      5-min Rain = 0
KAHS 111213Z 23003KT 21/18 A3011 RMK A01 T02120176  RH  080%=      5-min Rain = 0
KAHS 111214Z 23004KT 21/18 A3011 RMK A01 T02130177  RH  080%=      5-min Rain = 0
KAHS 111215Z 24004KT 21/18 A3011 RMK A01 T02130177  RH  080%=      5-min Rain = 0
KAHS 111216Z 23004KT 21/18 A3011 RMK A01 T02130177  RH  080%=      5-min Rain = 0
KAHS 111217Z 24004KT 21/18 A3011 RMK A01 T02140177  RH  080%=      5-min Rain = 0
KAHS 111218Z 23004KT 21/18 A3011 RMK A01 T02140177  RH  080%=      5-min Rain = 0
KAHS 111219Z 23004KT 21/18 A3011 RMK A01 T02140178  RH  080%=      5-min Rain = 0
KAHS 111220Z 23004KT 22/18 A3011 RMK A01 T02150178  RH  079%=      5-min Rain = 0
KAHS 111221Z 23004KT 22/18 A3011 RMK A01 T02160178  RH  079%=      5-min Rain = 0
KAHS 111222Z 22004KT 22/18 A3011 RMK A01 T02170179  RH  079%=      5-min Rain = 0
KAHS 111223Z 22005KT 22/18 A3011 RMK A01 T02180179  RH  078%=      5-min Rain = 0
KAHS 111224Z 22004KT 22/18 A3011 RMK A01 T02190179  RH  078%=      5-min Rain = 0
KAHS 111225Z 22004KT 22/18 A3011 RMK A01 T02200179  RH  077%=      5-min Rain = 0
KAHS 111226Z 22004KT 22/18 A3011 RMK A01 T02210178  RH  077%=      5-min Rain = 0
KAHS 111227Z 21004KT 22/18 A3011 RMK A01 T02220179  RH  077%=      5-min Rain = 0
KAHS 111228Z 22004KT 22/18 A3011 RMK A01 T02230179  RH  076%=      5-min Rain = 0
KAHS 111229Z 21004KT 22/18 A3011 RMK A01 T02240179  RH  076%=      5-min Rain = 0
KAHS 111230Z 21003KT 23/18 A3011 RMK A01 T02250179  RH  075%=      5-min Rain = 0
KAHS 111231Z 21004KT 23/18 A3011 RMK A01 T02250179  RH  075%=      5-min Rain = 0
KAHS 111232Z 21004KT 23/18 A3011 RMK A01 T02250179  RH  075%=      5-min Rain = 0
KAHS 111233Z 21004KT 23/18 A3011 RMK A01 T02260178  RH  074%=      5-min Rain = 0
KAHS 111234Z 21005KT 23/18 A3011 RMK A01 T02280178  RH  073%=      5-min Rain = 0
KAHS 111235Z 21005KT 23/18 A3011 RMK A01 T02290177  RH  072%=      5-min Rain = 0
KAHS 111236Z 21004KT 23/18 A3011 RMK A01 T02310177  RH  071%=      5-min Rain = 0
KAHS 111237Z 21004KT 23/18 A3011 RMK A01 T02320176  RH  071%=      5-min Rain = 0
KAHS 111238Z 21005KT 23/18 A3011 RMK A01 T02330176  RH  070%=      5-min Rain = 0
KAHS 111239Z 21004KT 23/18 A3011 RMK A01 T02340176  RH  070%=      5-min Rain = 0
KAHS 111240Z 21005KT 24/18 A3011 RMK A01 T02350175  RH  069%=      5-min Rain = 0
KAHS 111241Z 21004KT 24/18 A3011 RMK A01 T02360176  RH  069%=      5-min Rain = 0
KAHS 111242Z 20005KT 24/18 A3011 RMK A01 T02380175  RH  068%=      5-min Rain = 0
KAHS 111243Z 20005KT 24/18 A3011 RMK A01 T02380176  RH  068%=      5-min Rain = 0
KAHS 111244Z 20005KT 24/18 A3011 RMK A01 T02390176  RH  068%=      5-min Rain = 0
KAHS 111245Z 21004KT 24/18 A3011 RMK A01 T02400175  RH  067%=      5-min Rain = 0
KAHS 111246Z 20005KT 24/18 A3011 RMK A01 T02400175  RH  067%=      5-min Rain = 0
KAHS 111247Z 21005KT 24/18 A3011 RMK A01 T02400175  RH  067%=      5-min Rain = 0
KAHS 111248Z 21004KT 24/18 A3011 RMK A01 T02410176  RH  067%=      5-min Rain = 0
KAHS 111249Z 21004KT 24/18 A3011 RMK A01 T02410176  RH  067%=      5-min Rain = 0
KAHS 111250Z 21005KT 24/18 A3011 RMK A01 T02410176  RH  067%=      5-min Rain = 0
KAHS 111251Z 20005KT 24/18 A3011 RMK A01 T02410176  RH  067%=      5-min Rain = 0
KAHS 111252Z 20004KT 24/18 A3011 RMK A01 T02410176  RH  067%=      5-min Rain = 0
KAHS 111253Z 20004KT 24/18 A3011 RMK A01 T02420177  RH  067%=      5-min Rain = 0
KAHS 111254Z 20004KT 24/18 A3011 RMK A01 T02420176  RH  066%=      5-min Rain = 0
KAHS 111255Z 20004KT 24/18 A3011 RMK A01 T02430176  RH  066%=      5-min Rain = 0
KAHS 111256Z 20005KT 24/18 A3011 RMK A01 T02440176  RH  066%=      5-min Rain = 0
KAHS 111257Z 19004KT 24/18 A3011 RMK A01 T02440176  RH  066%=      5-min Rain = 0
KAHS 111258Z 21004KT 24/18 A3011 RMK A01 T02440176  RH  066%=      5-min Rain = 0
KAHS 111259Z 20003KT 24/18 A3011 RMK A01 T02440176  RH  066%=      5-min Rain = 0
KAHS 111300Z 21003KT 24/18 A3011 RMK A01 T02440175  RH  066%=      5-min Rain = 0
KAHS 111301Z 19004KT 24/18 A3011 RMK A01 T02440176  RH  066%=      5-min Rain = 0
KAHS 111302Z 19004KT 24/18 A3011 RMK A01 T02440175  RH  066%=      5-min Rain = 0
KAHS 111303Z 20004KT 24/18 A3011 RMK A01 T02440175  RH  065%=      5-min Rain = 0
KAHS 111304Z 20004KT 25/17 A3011 RMK A01 T02450174  RH  064%=      5-min Rain = 0
KAHS 111305Z 20006KT 25/17 A3012 RMK A01 T02460174  RH  064%=      5-min Rain = 0
KAHS 111306Z 20006KT 25/17 A3012 RMK A01 T02470173  RH  063%=      5-min Rain = 0
KAHS 111307Z 20005KT 25/17 A3012 RMK A01 T02480173  RH  063%=      5-min Rain = 0
KAHS 111308Z 20004KT 25/17 A3012 RMK A01 T02490174  RH  063%=      5-min Rain = 0
KAHS 111309Z 20004KT 25/17 A3012 RMK A01 T02500173  RH  062%=      5-min Rain = 0
KAHS 111310Z 20005KT 25/17 A3012 RMK A01 T02510173  RH  062%=      5-min Rain = 0
KAHS 111311Z 21005KT 25/17 A3012 RMK A01 T02510172  RH  062%=      5-min Rain = 0
KAHS 111312Z 20004KT 25/17 A3012 RMK A01 T02520174  RH  062%=      5-min Rain = 0
KAHS 111313Z 21006KT 25/17 A3012 RMK A01 T02530173  RH  061%=      5-min Rain = 0
KAHS 111314Z 19005KT 25/17 A3012 RMK A01 T02530172  RH  061%=      5-min Rain = 0
KAHS 111315Z 21006KT 25/17 A3012 RMK A01 T02530173  RH  061%=      5-min Rain = 0
KAHS 111316Z 20006KT 25/17 A3012 RMK A01 T02530172  RH  061%=      5-min Rain = 0
KAHS 111317Z 20006KT 25/17 A3012 RMK A01 T02540172  RH  061%=      5-min Rain = 0
KAHS 111318Z 19005KT 25/17 A3012 RMK A01 T02540172  RH  061%=      5-min Rain = 0
KAHS 111319Z 20005KT 26/17 A3012 RMK A01 T02550173  RH  060%=      5-min Rain = 0
KAHS 111320Z 18005KT 26/17 A3012 RMK A01 T02560172  RH  060%=      5-min Rain = 0
KAHS 111321Z 19005KT 26/17 A3012 RMK A01 T02560172  RH  060%=      5-min Rain = 0
KAHS 111322Z 20008KT 26/17 A3012 RMK A01 T02570172  RH  059%=      5-min Rain = 0
KAHS 111323Z 19007KT 26/17 A3012 RMK A01 T02560171  RH  059%=      5-min Rain = 0
KAHS 111324Z 19009KT 26/17 A3012 RMK A01 T02570172  RH  059%=      5-min Rain = 0
KAHS 111325Z 20008KT 26/17 A3012 RMK A01 T02560171  RH  059%=      5-min Rain = 0
KAHS 111326Z 20010KT 26/17 A3012 RMK A01 T02560171  RH  059%=      5-min Rain = 0
KAHS 111327Z 20007KT 26/17 A3012 RMK A01 T02560171  RH  059%=      5-min Rain = 0
KAHS 111328Z 19008KT 26/17 A3012 RMK A01 T02570173  RH  059%=      5-min Rain = 0
KAHS 111329Z 20009KT 26/17 A3012 RMK A01 T02580173  RH  059%=      5-min Rain = 0
KAHS 111330Z 21007KT 26/17 A3012 RMK A01 T02590173  RH  059%=      5-min Rain = 0
KAHS 111331Z 22006KT 26/17 A3012 RMK A01 T02600174  RH  059%=      5-min Rain = 0
KAHS 111332Z 20008KT 26/17 A3012 RMK A01 T02600174  RH  059%=      5-min Rain = 0
KAHS 111333Z 22009KT 26/17 A3012 RMK A01 T02610174  RH  059%=      5-min Rain = 0
KAHS 111334Z 20007KT 26/17 A3012 RMK A01 T02610174  RH  059%=      5-min Rain = 0
KAHS 111335Z 20008KT 26/17 A3012 RMK A01 T02620174  RH  058%=      5-min Rain = 0
KAHS 111336Z 20007KT 26/18 A3012 RMK A01 T02620175  RH  059%=      5-min Rain = 0
KAHS 111337Z 21006KT 26/18 A3012 RMK A01 T02630175  RH  058%=      5-min Rain = 0
KAHS 111338Z 22005KT 27/18 A3012 RMK A01 T02650176  RH  058%=      5-min Rain = 0
KAHS 111339Z 21006KT 27/18 A3012 RMK A01 T02660177  RH  058%=      5-min Rain = 0
KAHS 111340Z 21007KT 27/18 A3012 RMK A01 T02660176  RH  058%=      5-min Rain = 0
KAHS 111341Z 20007KT 27/18 A3012 RMK A01 T02660177  RH  058%=      5-min Rain = 0
KAHS 111342Z 21010KT 27/18 A3012 RMK A01 T02670176  RH  058%=      5-min Rain = 0
KAHS 111343Z 21011KT 26/18 A3012 RMK A01 T02640175  RH  058%=      5-min Rain = 0
KAHS 111344Z 20009KT 26/18 A3012 RMK A01 T02640176  RH  059%=      5-min Rain = 0
KAHS 111345Z 20011KT 26/18 A3012 RMK A01 T02640176  RH  058%=      5-min Rain = 0
KAHS 111346Z 20011KT 26/18 A3012 RMK A01 T02640176  RH  058%=      5-min Rain = 0
KAHS 111347Z 20011KT 26/18 A3012 RMK A01 T02630175  RH  059%=      5-min Rain = 0
KAHS 111348Z 21010KT 26/18 A3012 RMK A01 T02630176  RH  059%=      5-min Rain = 0
KAHS 111349Z 21012KT 26/18 A3012 RMK A01 T02630175  RH  059%=      5-min Rain = 0
KAHS 111350Z 21009KT 26/18 A3012 RMK A01 T02630176  RH  059%=      5-min Rain = 0
KAHS 111351Z 20008KT 26/18 A3012 RMK A01 T02630177  RH  059%=      5-min Rain = 0
KAHS 111352Z 21010KT 27/18 A3012 RMK A01 T02650177  RH  059%=      5-min Rain = 0
KAHS 111353Z 20007KT 27/18 A3012 RMK A01 T02660178  RH  058%=      5-min Rain = 0
KAHS 111354Z 20010KT 27/18 A3012 RMK A01 T02670178  RH  058%=      5-min Rain = 0
KAHS 111355Z 21011KT 27/18 A3012 RMK A01 T02670177  RH  058%=      5-min Rain = 0
KAHS 111356Z 21010KT 27/18 A3012 RMK A01 T02660177  RH  058%=      5-min Rain = 0
KAHS 111357Z 20009KT 27/18 A3012 RMK A01 T02660177  RH  058%=      5-min Rain = 0
KAHS 111358Z 21009KT 27/18 A3012 RMK A01 T02650177  RH  058%=      5-min Rain = 0
KAHS 111359Z 20010KT 27/18 A3012 RMK A01 T02650177  RH  058%=      5-min Rain = 0
KAHS 111400Z 21008KT 27/18 A3012 RMK A01 T02650177  RH  059%=      5-min Rain = 0
KAHS 111401Z 20007KT 27/18 A3012 RMK A01 T02650178  RH  059%=      5-min Rain = 0
KAHS 111402Z 21007KT 27/18 A3012 RMK A01 T02650178  RH  059%=      5-min Rain = 0
KAHS 111403Z 21008KT 27/18 A3013 RMK A01 T02650177  RH  058%=      5-min Rain = 0
KAHS 111404Z 20009KT 27/18 A3013 RMK A01 T02660178  RH  058%=      5-min Rain = 0
KAHS 111405Z 20009KT 27/18 A3013 RMK A01 T02660178  RH  058%=      5-min Rain = 0
KAHS 111406Z 19009KT 27/18 A3013 RMK A01 T02680179  RH  058%=      5-min Rain = 0
KAHS 111407Z 21010KT 27/18 A3012 RMK A01 T02690178  RH  058%=      5-min Rain = 0
KAHS 111408Z 21009KT 27/18 A3012 RMK A01 T02690179  RH  058%=      5-min Rain = 0
KAHS 111409Z 22009KT 27/18 A3013 RMK A01 T02700179  RH  057%=      5-min Rain = 0
KAHS 111410Z 23010KT 27/18 A3012 RMK A01 T02700178  RH  057%=      5-min Rain = 0
KAHS 111411Z 22011KT 27/18 A3012 RMK A01 T02700178  RH  057%=      5-min Rain = 0
KAHS 111412Z 21012KT 27/18 A3013 RMK A01 T02700179  RH  057%=      5-min Rain = 0
KAHS 111413Z 21011KT 27/18 A3013 RMK A01 T02690178  RH  057%=      5-min Rain = 0
KAHS 111414Z 21009KT 27/18 A3013 RMK A01 T02700178  RH  057%=      5-min Rain = 0
KAHS 111415Z 20011KT 27/18 A3013 RMK A01 T02710178  RH  057%=      5-min Rain = 0
KAHS 111416Z 20011KT 27/18 A3013 RMK A01 T02700178  RH  057%=      5-min Rain = 0
KAHS 111417Z 21010KT 27/18 A3013 RMK A01 T02710179  RH  057%=      5-min Rain = 0
KAHS 111418Z 21008KT 27/18 A3013 RMK A01 T02730179  RH  057%=      5-min Rain = 0
KAHS 111419Z 20009KT 27/18 A3013 RMK A01 T02740179  RH  056%=      5-min Rain = 0
KAHS 111420Z 20010KT 27/18 A3013 RMK A01 T02740179  RH  056%=      5-min Rain = 0
KAHS 111421Z 21012KT 27/18 A3013 RMK A01 T02740179  RH  056%=      5-min Rain = 0
KAHS 111422Z 22012KT 27/18 A3013 RMK A01 T02730178  RH  056%=      5-min Rain = 0
KAHS 111423Z 21011KT 27/18 A3013 RMK A01 T02730178  RH  056%=      5-min Rain = 0
KAHS 111424Z 22009KT 27/18 A3013 RMK A01 T02720179  RH  057%=      5-min Rain = 0
KAHS 111425Z 21008KT 27/18 A3013 RMK A01 T02730179  RH  057%=      5-min Rain = 0
KAHS 111426Z 20008KT 27/18 A3013 RMK A01 T02740180  RH  056%=      5-min Rain = 0
KAHS 111427Z 22006KT 28/18 A3013 RMK A01 T02760181  RH  056%=      5-min Rain = 0
KAHS 111428Z 23007KT 28/18 A3013 RMK A01 T02770180  RH  055%=      5-min Rain = 0
KAHS 111429Z 22008KT 28/18 A3013 RMK A01 T02790181  RH  055%=      5-min Rain = 0
KAHS 111430Z 23008KT 28/18 A3013 RMK A01 T02790180  RH  055%=      5-min Rain = 0
KAHS 111431Z 22009KT 28/18 A3013 RMK A01 T02780179  RH  055%=      5-min Rain = 0
KAHS 111432Z 22007KT 28/18 A3013 RMK A01 T02780180  RH  055%=      5-min Rain = 0
KAHS 111433Z 20005KT 28/18 A3013 RMK A01 T02790180  RH  055%=      5-min Rain = 0
KAHS 111434Z 20007KT 28/18 A3013 RMK A01 T02800181  RH  055%=      5-min Rain = 0
KAHS 111435Z 20007KT 28/18 A3013 RMK A01 T02800181  RH  055%=      5-min Rain = 0
KAHS 111436Z 22006KT 28/18 A3013 RMK A01 T02810182  RH  055%=      5-min Rain = 0
KAHS 111437Z 22007KT 28/18 A3013 RMK A01 T02820182  RH  055%=      5-min Rain = 0
KAHS 111438Z 20009KT 28/18 A3013 RMK A01 T02820181  RH  054%=      5-min Rain = 0
KAHS 111439Z 19009KT 28/18 A3013 RMK A01 T02820180  RH  054%=      5-min Rain = 0
KAHS 111440Z 20008KT 28/18 A3013 RMK A01 T02810180  RH  054%=      5-min Rain = 0
KAHS 111441Z 22007KT 28/18 A3013 RMK A01 T02810181  RH  055%=      5-min Rain = 0
KAHS 111442Z 21008KT 28/18 A3013 RMK A01 T02830181  RH  054%=      5-min Rain = 0
KAHS 111443Z 22008KT 28/18 A3013 RMK A01 T02840181  RH  054%=      5-min Rain = 0
KAHS 111444Z 22008KT 28/18 A3013 RMK A01 T02830179  RH  053%=      5-min Rain = 0
KAHS 111445Z 21007KT 28/18 A3013 RMK A01 T02830181  RH  054%=      5-min Rain = 0
KAHS 111446Z 22007KT 28/18 A3013 RMK A01 T02840180  RH  053%=      5-min Rain = 0
KAHS 111447Z 22007KT 29/18 A3013 RMK A01 T02850181  RH  053%=      5-min Rain = 0
KAHS 111448Z 21007KT 29/18 A3013 RMK A01 T02870182  RH  053%=      5-min Rain = 0
KAHS 111449Z 21009KT 29/18 A3012 RMK A01 T02880181  RH  052%=      5-min Rain = 0
KAHS 111450Z 24010KT 29/18 A3012 RMK A01 T02880181  RH  052%=      5-min Rain = 0
KAHS 111451Z 22010KT 29/18 A3012 RMK A01 T02870180  RH  052%=      5-min Rain = 0
KAHS 111452Z 21011KT 29/18 A3012 RMK A01 T02860179  RH  052%=      5-min Rain = 0
KAHS 111453Z 21009KT 29/18 A3013 RMK A01 T02860180  RH  053%=      5-min Rain = 0
KAHS 111454Z 22009KT 29/18 A3013 RMK A01 T02860179  RH  052%=      5-min Rain = 0
KAHS 111455Z 22009KT 29/18 A3013 RMK A01 T02850180  RH  053%=      5-min Rain = 0
KAHS 111456Z 22006KT 28/18 A3012 RMK A01 T02830180  RH  053%=      5-min Rain = 0
KAHS 111457Z 24005KT 29/18 A3013 RMK A01 T02870182  RH  053%=      5-min Rain = 0
KAHS 111458Z 24009KT 29/18 A3012 RMK A01 T02890180  RH  052%=      5-min Rain = 0
KAHS 111459Z 23008KT 29/18 A3012 RMK A01 T02900180  RH  052%=      5-min Rain = 0
KAHS 111500Z 21007KT 29/18 A3012 RMK A01 T02890179  RH  051%=      5-min Rain = 0
KAHS 111501Z 20008KT 29/18 A3012 RMK A01 T02890180  RH  052%=      5-min Rain = 0
KAHS 111502Z 21007KT 29/18 A3012 RMK A01 T02900180  RH  052%=      5-min Rain = 0
KAHS 111503Z 24008KT 29/18 A3012 RMK A01 T02910180  RH  051%=      5-min Rain = 0
KAHS 111504Z 23009KT 29/18 A3012 RMK A01 T02910180  RH  051%=      5-min Rain = 0
KAHS 111505Z 24011KT 29/18 A3012 RMK A01 T02900179  RH  051%=      5-min Rain = 0
KAHS 111506Z 24010KT 29/18 A3012 RMK A01 T02900180  RH  052%=      5-min Rain = 0
KAHS 111507Z 24011KT 29/18 A3012 RMK A01 T02900180  RH  051%=      5-min Rain = 0
KAHS 111508Z 22008KT 29/18 A3012 RMK A01 T02880179  RH  052%=      5-min Rain = 0
KAHS 111509Z 22009KT 29/18 A3012 RMK A01 T02900180  RH  051%=      5-min Rain = 0
KAHS 111510Z 24007KT 29/18 A3012 RMK A01 T02890179  RH  051%=      5-min Rain = 0
KAHS 111511Z 21007KT 29/18 A3012 RMK A01 T02890178  RH  051%=      5-min Rain = 0
KAHS 111512Z 20008KT 29/18 A3012 RMK A01 T02890179  RH  051%=      5-min Rain = 0
KAHS 111513Z 21006KT 29/18 A3012 RMK A01 T02910180  RH  051%=      5-min Rain = 0
KAHS 111514Z 22008KT 29/18 A3012 RMK A01 T02940180  RH  050%=      5-min Rain = 0
KAHS 111515Z 20008KT 29/18 A3012 RMK A01 T02940179  RH  050%=      5-min Rain = 0
KAHS 111516Z 20009KT 29/18 A3012 RMK A01 T02940176  RH  049%=      5-min Rain = 0
KAHS 111517Z 22010KT 29/18 A3012 RMK A01 T02930177  RH  050%=      5-min Rain = 0
KAHS 111518Z 21008KT 29/18 A3012 RMK A01 T02930177  RH  050%=      5-min Rain = 0
KAHS 111519Z 20007KT 29/18 A3012 RMK A01 T02920177  RH  050%=      5-min Rain = 0
KAHS 111520Z 20008KT 29/18 A3012 RMK A01 T02920178  RH  050%=      5-min Rain = 0
KAHS 111521Z 21006KT 29/18 A3012 RMK A01 T02940179  RH  050%=      5-min Rain = 0
KAHS 111522Z 23010KT 30/18 A3012 RMK A01 T02950179  RH  050%=      5-min Rain = 0
KAHS 111523Z 23006KT 29/18 A3012 RMK A01 T02930178  RH  050%=      5-min Rain = 0
KAHS 111524Z 23006KT 29/18 A3012 RMK A01 T02930179  RH  050%=      5-min Rain = 0
KAHS 111525Z 24006KT 29/18 A3012 RMK A01 T02940179  RH  050%=      5-min Rain = 0
KAHS 111526Z 21007KT 30/18 A3012 RMK A01 T02970179  RH  049%=      5-min Rain = 0
KAHS 111527Z 20006G11KT 30/18 A3012 RMK A01 T02990178  RH  048%=      5-min Rain = 0
KAHS 111528Z 20008KT 30/18 A3012 RMK A01 T02990177  RH  048%=      5-min Rain = 0
KAHS 111529Z 22006KT 30/18 A3012 RMK A01 T02980177  RH  048%=      5-min Rain = 0
KAHS 111530Z 22008KT 30/18 A3012 RMK A01 T03000178  RH  048%=      5-min Rain = 0
KAHS 111531Z 22008KT 30/18 A3012 RMK A01 T02980177  RH  048%=      5-min Rain = 0
KAHS 111532Z 23010KT 30/18 A3012 RMK A01 T02970178  RH  049%=      5-min Rain = 0
KAHS 111533Z 22008KT 30/18 A3012 RMK A01 T02960177  RH  049%=      5-min Rain = 0
KAHS 111534Z 21008KT 30/18 A3012 RMK A01 T02990179  RH  049%=      5-min Rain = 0
KAHS 111535Z 21008KT 30/18 A3012 RMK A01 T02990178  RH  048%=      5-min Rain = 0
KAHS 111536Z 19009KT 30/18 A3012 RMK A01 T02990178  RH  048%=      5-min Rain = 0
KAHS 111537Z 18009KT 30/18 A3012 RMK A01 T02990176  RH  048%=      5-min Rain = 0
KAHS 111538Z 21010KT 30/18 A3012 RMK A01 T03000177  RH  048%=      5-min Rain = 0
KAHS 111539Z 23009KT 30/18 A3012 RMK A01 T03000176  RH  047%=      5-min Rain = 0
KAHS 111540Z 21009KT 30/18 A3012 RMK A01 T03000176  RH  047%=      5-min Rain = 0
KAHS 111541Z 21007KT 30/18 A3012 RMK A01 T03020178  RH  047%=      5-min Rain = 0
KAHS 111542Z 20009KT 30/18 A3012 RMK A01 T03020177  RH  047%=      5-min Rain = 0
KAHS 111543Z 19011KT 30/18 A3012 RMK A01 T03040176  RH  046%=      5-min Rain = 0
KAHS 111544Z 20011KT 30/18 A3012 RMK A01 T03040175  RH  046%=      5-min Rain = 0
KAHS 111545Z 22009KT 30/18 A3012 RMK A01 T03040175  RH  046%=      5-min Rain = 0
KAHS 111546Z 22006KT 31/18 A3012 RMK A01 T03050175  RH  046%=      5-min Rain = 0
KAHS 111547Z 21008KT 30/18 A3012 RMK A01 T03040175  RH  046%=      5-min Rain = 0
KAHS 111548Z 19007KT 31/18 A3012 RMK A01 T03050177  RH  046%=      5-min Rain = 0
KAHS 111549Z 16008KT 31/18 A3012 RMK A01 T03080176  RH  045%=      5-min Rain = 0
KAHS 111550Z 18010KT 31/18 A3012 RMK A01 T03090176  RH  045%=      5-min Rain = 0
KAHS 111551Z 19010KT 31/17 A3012 RMK A01 T03070174  RH  045%=      5-min Rain = 0
KAHS 111552Z 19010KT 31/17 A3012 RMK A01 T03060174  RH  045%=      5-min Rain = 0
KAHS 111553Z 19008KT 31/18 A3012 RMK A01 T03050175  RH  046%=      5-min Rain = 0
KAHS 111554Z 20009KT 31/18 A3012 RMK A01 T03080175  RH  045%=      5-min Rain = 0
KAHS 111555Z 21008KT 31/18 A3012 RMK A01 T03090175  RH  045%=      5-min Rain = 0
KAHS 111556Z 21010KT 31/18 A3012 RMK A01 T03080175  RH  045%=      5-min Rain = 0
KAHS 111557Z 22008KT 31/18 A3012 RMK A01 T03060175  RH  045%=      5-min Rain = 0
KAHS 111558Z 21006KT 31/18 A3012 RMK A01 T03070176  RH  045%=      5-min Rain = 0
KAHS 111559Z 19009KT 31/18 A3012 RMK A01 T03080177  RH  046%=      5-min Rain = 0
KAHS 111600Z 16005KT 31/18 A3012 RMK A01 T03070179  RH  046%=      5-min Rain = 0
KAHS 111601Z 20010KT 31/18 A3012 RMK A01 T03090176  RH  045%=      5-min Rain = 0
KAHS 111602Z 20009KT 31/17 A3012 RMK A01 T03100173  RH  044%=      5-min Rain = 0
KAHS 111603Z 21010KT 31/17 A3012 RMK A01 T03090173  RH  044%=      5-min Rain = 0
KAHS 111604Z 20009KT 31/18 A3012 RMK A01 T03080175  RH  045%=      5-min Rain = 0
KAHS 111605Z 21010KT 31/17 A3012 RMK A01 T03080174  RH  045%=      5-min Rain = 0
KAHS 111606Z 21009KT 31/17 A3012 RMK A01 T03080174  RH  044%=      5-min Rain = 0
KAHS 111607Z 20009KT 31/18 A3012 RMK A01 T03100176  RH  045%=      5-min Rain = 0
KAHS 111608Z 18007KT 31/18 A3012 RMK A01 T03130177  RH  044%=      5-min Rain = 0
KAHS 111609Z 17009KT 31/18 A3012 RMK A01 T03120176  RH  044%=      5-min Rain = 0
KAHS 111610Z 17010KT 31/18 A3012 RMK A01 T03130177  RH  044%=      5-min Rain = 0
KAHS 111611Z 17009KT 32/18 A3012 RMK A01 T03150177  RH  044%=      5-min Rain = 0
KAHS 111612Z 17010KT 32/18 A3012 RMK A01 T03160176  RH  043%=      5-min Rain = 0
KAHS 111613Z 17009KT 31/17 A3012 RMK A01 T03140174  RH  043%=      5-min Rain = 0
KAHS 111614Z 18008KT 31/18 A3012 RMK A01 T03140176  RH  044%=      5-min Rain = 0
KAHS 111615Z 20008KT 31/17 A3011 RMK A01 T03120174  RH  044%=      5-min Rain = 0
KAHS 111616Z 19005KT 31/18 A3011 RMK A01 T03100177  RH  045%=      5-min Rain = 0
KAHS 111617Z 17010KT 31/18 A3011 RMK A01 T03130177  RH  044%=      5-min Rain = 0
KAHS 111618Z 17009KT 31/18 A3011 RMK A01 T03130178  RH  045%=      5-min Rain = 0
KAHS 111619Z 17010KT 32/18 A3011 RMK A01 T03160178  RH  044%=      5-min Rain = 0
KAHS 111620Z 17011KT 32/17 A3011 RMK A01 T03150174  RH  043%=      5-min Rain = 0
KAHS 111621Z 19011KT 32/17 A3011 RMK A01 T03150173  RH  043%=      5-min Rain = 0
KAHS 111622Z 17011KT 31/17 A3011 RMK A01 T03140173  RH  043%=      5-min Rain = 0
KAHS 111623Z 18010KT 31/17 A3011 RMK A01 T03140172  RH  043%=      5-min Rain = 0
KAHS 111624Z 19008KT 31/18 A3011 RMK A01 T03130175  RH  044%=      5-min Rain = 0
KAHS 111625Z 19009KT 32/18 A3011 RMK A01 T03160176  RH  043%=      5-min Rain = 0
KAHS 111626Z 19010KT 32/17 A3011 RMK A01 T03150173  RH  043%=      5-min Rain = 0
KAHS 111627Z 19009KT 31/18 A3011 RMK A01 T03140175  RH  043%=      5-min Rain = 0
KAHS 111628Z 19010KT 32/18 A3011 RMK A01 T03160176  RH  043%=      5-min Rain = 0
KAHS 111629Z 17011KT 32/18 A3011 RMK A01 T03150175  RH  043%=      5-min Rain = 0
KAHS 111630Z 17011KT 32/17 A3011 RMK A01 T03150174  RH  043%=      5-min Rain = 0
KAHS 111631Z 17008KT 32/18 A3011 RMK A01 T03150176  RH  043%=      5-min Rain = 0
KAHS 111632Z 16009KT 32/17 A3011 RMK A01 T03160173  RH  042%=      5-min Rain = 0
KAHS 111633Z 16010KT 32/18 A3011 RMK A01 T03170175  RH  043%=      5-min Rain = 0
KAHS 111634Z 17011KT 32/17 A3011 RMK A01 T03160173  RH  042%=      5-min Rain = 0
KAHS 111635Z 17010KT 32/17 A3011 RMK A01 T03150172  RH  042%=      5-min Rain = 0
KAHS 111636Z 18009KT 32/17 A3011 RMK A01 T03160173  RH  042%=      5-min Rain = 0
KAHS 111637Z 20010KT 32/17 A3011 RMK A01 T03170173  RH  042%=      5-min Rain = 0
KAHS 111638Z 19011KT 31/17 A3011 RMK A01 T03130172  RH  043%=      5-min Rain = 0
KAHS 111639Z 17011KT 32/17 A3011 RMK A01 T03150171  RH  042%=      5-min Rain = 0
KAHS 111640Z 17011KT 32/17 A3011 RMK A01 T03160172  RH  042%=      5-min Rain = 0
KAHS 111641Z 18012KT 32/17 A3011 RMK A01 T03150172  RH  042%=      5-min Rain = 0
KAHS 111642Z 18011KT 32/17 A3011 RMK A01 T03150173  RH  043%=      5-min Rain = 0
KAHS 111643Z 18009KT 31/17 A3011 RMK A01 T03130174  RH  043%=      5-min Rain = 0
KAHS 111644Z 19007KT 31/17 A3011 RMK A01 T03140172  RH  043%=      5-min Rain = 0
KAHS 111645Z 18009KT 32/17 A3011 RMK A01 T03150172  RH  043%=      5-min Rain = 0
KAHS 111646Z 19010KT 32/17 A3011 RMK A01 T03170171  RH  042%=      5-min Rain = 0
KAHS 111647Z 18010KT 32/17 A3011 RMK A01 T03190167  RH  040%=      5-min Rain = 0
KAHS 111648Z 19009KT 32/17 A3011 RMK A01 T03180166  RH  040%=      5-min Rain = 0
KAHS 111649Z 20009KT 32/17 A3011 RMK A01 T03190170  RH  041%=      5-min Rain = 0
KAHS 111650Z 18012KT 32/17 A3011 RMK A01 T03180170  RH  041%=      5-min Rain = 0
KAHS 111651Z 19009KT 32/17 A3011 RMK A01 T03180169  RH  041%=      5-min Rain = 0
KAHS 111652Z 18010KT 32/17 A3011 RMK A01 T03190169  RH  041%=      5-min Rain = 0
KAHS 111653Z 17010KT 32/17 A3011 RMK A01 T03200169  RH  041%=      5-min Rain = 0
KAHS 111654Z 16008KT 32/17 A3011 RMK A01 T03210171  RH  041%=      5-min Rain = 0
KAHS 111655Z 19008KT 32/17 A3011 RMK A01 T03210169  RH  040%=      5-min Rain = 0
KAHS 111656Z 19006KT 32/17 A3011 RMK A01 T03200167  RH  040%=      5-min Rain = 0
KAHS 111657Z 20008KT 32/17 A3011 RMK A01 T03230170  RH  040%=      5-min Rain = 0
KAHS 111658Z 18011KT 33/16 A3011 RMK A01 T03250164  RH  038%=      5-min Rain = 0
KAHS 111659Z 19012KT 32/15 A3011 RMK A01 T03240154  RH  036%=      5-min Rain = 0
KAHS 111700Z 20008KT 32/15 A3011 RMK A01 T03200154  RH  037%=      5-min Rain = 0
KAHS 111701Z 21011KT 32/16 A301 RMK A01 T03230163  RH  038%=      5-min Rain = 0
KAHS 111702Z 18008KT 32/16 A3011 RMK A01 T03220164  RH  039%=      5-min Rain = 0
KAHS 111703Z 18007KT 33/16 A3011 RMK A01 T03260164  RH  038%=      5-min Rain = 0
KAHS 111704Z 20011KT 33/16 A3011 RMK A01 T03280164  RH  037%=      5-min Rain = 0
KAHS 111705Z 19011KT 33/16 A3011 RMK A01 T03270164  RH  038%=      5-min Rain = 0
KAHS 111706Z 18008G13KT 33/17 A3011 RMK A01 T03250165  RH  038%=      5-min Rain = 0
KAHS 111707Z 17010KT 32/17 A3011 RMK A01 T03240167  RH  039%=      5-min Rain = 0
KAHS 111708Z 20007KT 32/17 A301 RMK A01 T03220169  RH  040%=      5-min Rain = 0
KAHS 111709Z 19011G18KT 32/17 A301 RMK A01 T03230168  RH  040%=      5-min Rain = 0
KAHS 111710Z 20011G17KT 32/17 A301 RMK A01 T03210166  RH  039%=      5-min Rain = 0
KAHS 111711Z 19011KT 32/17 A301 RMK A01 T03240167  RH  039%=      5-min Rain = 0
KAHS 111712Z 17007KT 32/17 A301 RMK A01 T03240166  RH  039%=      5-min Rain = 0
KAHS 111713Z 18009KT 33/17 A301 RMK A01 T03250166  RH  039%=      5-min Rain = 0
KAHS 111714Z 20010KT 33/17 A301 RMK A01 T03270165  RH  038%=      5-min Rain = 0
KAHS 111715Z 19009KT 33/17 A301 RMK A01 T03280166  RH  038%=      5-min Rain = 0
KAHS 111716Z 16011KT 33/17 A301 RMK A01 T03300165  RH  037%=      5-min Rain = 0
KAHS 111717Z 17010KT 33/16 A301 RMK A01 T03300160  RH  036%=      5-min Rain = 0
KAHS 111718Z 16009KT 33/16 A3011 RMK A01 T03270160  RH  037%=      5-min Rain = 0
KAHS 111719Z 17009KT 32/17 A301 RMK A01 T03240168  RH  039%=      5-min Rain = 0
KAHS 111720Z 16008KT 33/17 A301 RMK A01 T03280173  RH  040%=      5-min Rain = 0
KAHS 111721Z 17009KT 33/17 A301 RMK A01 T03280172  RH  039%=      5-min Rain = 0
KAHS 111722Z 19011G16KT 33/16 A301 RMK A01 T03280161  RH  037%=      5-min Rain = 0
KAHS 111723Z 19013KT 33/15 A301 RMK A01 T03300149  RH  034%=      5-min Rain = 0
KAHS 111724Z 17011KT 33/15 A301 RMK A01 T03300146  RH  033%=      5-min Rain = 0
KAHS 111725Z 17013KT 33/14 A301 RMK A01 T03310144  RH  032%=      5-min Rain = 0
KAHS 111726Z 17015KT 33/15 A301 RMK A01 T03330148  RH  033%=      5-min Rain = 0
KAHS 111727Z 17014KT 33/15 A301 RMK A01 T03300149  RH  034%=      5-min Rain = 0
KAHS 111728Z 17011KT 33/15 A301 RMK A01 T03270153  RH  035%=      5-min Rain = 0
KAHS 111729Z 17009KT 33/16 A301 RMK A01 T03260157  RH  036%=      5-min Rain = 0
KAHS 111730Z 17009KT 33/16 A301 RMK A01 T03280160  RH  036%=      5-min Rain = 0
KAHS 111731Z 18011KT 33/16 A301 RMK A01 T03320160  RH  036%=      5-min Rain = 0
KAHS 111732Z 17011KT 33/15 A301 RMK A01 T03320153  RH  034%=      5-min Rain = 0
KAHS 111733Z 17010KT 33/15 A301 RMK A01 T03300152  RH  034%=      5-min Rain = 0
KAHS 111734Z 17012KT 33/16 A301 RMK A01 T03280158  RH  036%=      5-min Rain = 0
KAHS 111735Z 17011KT 33/16 A301 RMK A01 T03260161  RH  037%=      5-min Rain = 0
KAHS 111736Z 19013KT 32/16 A301 RMK A01 T03240159  RH  037%=      5-min Rain = 0
KAHS 111737Z 20016KT 33/15 A301 RMK A01 T03260152  RH  035%=      5-min Rain = 0
KAHS 111738Z 19012KT 33/15 A301 RMK A01 T03270148  RH  034%=      5-min Rain = 0
KAHS 111739Z 19011KT 33/14 A301 RMK A01 T03260144  RH  033%=      5-min Rain = 0
KAHS 111740Z 21009KT 33/15 A301 RMK A01 T03250148  RH  034%=      5-min Rain = 0
KAHS 111741Z 20006KT 32/15 A301 RMK A01 T03230149  RH  035%=      5-min Rain = 0
KAHS 111742Z 20008KT 33/15 A301 RMK A01 T03260154  RH  035%=      5-min Rain = 0
KAHS 111743Z 20008KT 33/15 A301 RMK A01 T03260154  RH  035%=      5-min Rain = 0
KAHS 111744Z 18007KT 33/16 A301 RMK A01 T03290157  RH  036%=      5-min Rain = 0
KAHS 111745Z 18010G16KT 33/16 A301 RMK A01 T03290155  RH  035%=      5-min Rain = 0
KAHS 111746Z 18011KT 33/14 A301 RMK A01 T03260143  RH  033%=      5-min Rain = 0
KAHS 111747Z 17010KT 33/14 A301 RMK A01 T03250141  RH  033%=      5-min Rain = 0
KAHS 111748Z 17011KT 33/14 A301 RMK A01 T03270141  RH  032%=      5-min Rain = 0
KAHS 111749Z 18011KT 33/14 A301 RMK A01 T03280139  RH  032%=      5-min Rain = 0
KAHS 111750Z 19012KT 33/14 A3009 RMK A01 T03270140  RH  032%=      5-min Rain = 0
KAHS 111751Z 17010KT 33/14 A3009 RMK A01 T03270143  RH  033%=      5-min Rain = 0
KAHS 111752Z 17012KT 33/15 A3009 RMK A01 T03290145  RH  033%=      5-min Rain = 0
KAHS 111753Z 17010KT 33/15 A3009 RMK A01 T03290146  RH  033%=      5-min Rain = 0
KAHS 111754Z 19009KT 33/14 A3009 RMK A01 T03300144  RH  033%=      5-min Rain = 0
KAHS 111755Z 20012KT 33/14 A3009 RMK A01 T03340139  RH  031%=      5-min Rain = 0
KAHS 111756Z 20014KT 33/14 A3009 RMK A01 T03340138  RH  031%=      5-min Rain = 0
KAHS 111757Z 19013G18KT 33/14 A3009 RMK A01 T03310140  RH  032%=      5-min Rain = 0
KAHS 111758Z 19011KT 33/14 A3009 RMK A01 T03340141  RH  031%=      5-min Rain = 0
KAHS 111759Z 20010KT 33/14 A3009 RMK A01 T03340140  RH  031%=      5-min Rain = 0
KAHS 111800Z 20008KT 33/14 A3009 RMK A01 T03320142  RH  032%=      5-min Rain = 0
KAHS 111801Z 17011G18KT 34/15 A3009 RMK A01 T03350145  RH  032%=      5-min Rain = 0
KAHS 111802Z 15014KT 34/15 A3009 RMK A01 T03380146  RH  032%=      5-min Rain = 0
KAHS 111803Z 14011KT 34/15 A3009 RMK A01 T03360145  RH  032%=      5-min Rain = 0
KAHS 111804Z 14012KT 34/14 A3009 RMK A01 T03350142  RH  031%=      5-min Rain = 0
KAHS 111805Z 16012KT 33/14 A3009 RMK A01 T03320141  RH  032%=      5-min Rain = 0
KAHS 111806Z 15014KT 33/14 A3009 RMK A01 T03320143  RH  032%=      5-min Rain = 0
KAHS 111807Z 15014KT 33/14 A3009 RMK A01 T03340144  RH  032%=      5-min Rain = 0
KAHS 111808Z 17009G15KT 34/15 A3009 RMK A01 T03350146  RH  032%=      5-min Rain = 0
KAHS 111809Z 18012KT 34/14 A3008 RMK A01 T03400144  RH  031%=      5-min Rain = 0
KAHS 111810Z 18013KT 34/14 A3008 RMK A01 T03400142  RH  030%=      5-min Rain = 0
KAHS 111811Z 17011KT 34/14 A3009 RMK A01 T03400137  RH  029%=      5-min Rain = 0
KAHS 111812Z 18010KT 34/14 A3009 RMK A01 T03410137  RH  029%=      5-min Rain = 0
KAHS 111813Z 17010G17KT 35/14 A3009 RMK A01 T03470141  RH  029%=      5-min Rain = 0
KAHS 111814Z 17011KT 35/14 A3008 RMK A01 T03480139  RH  029%=      5-min Rain = 0
KAHS 111815Z 16008KT 35/14 A3009 RMK A01 T03510141  RH  028%=      5-min Rain = 0
KAHS 111816Z 17012KT 35/14 A3008 RMK A01 T03520138  RH  028%=      5-min Rain = 0
KAHS 111817Z 16012KT 35/14 A3008 RMK A01 T03470139  RH  029%=      5-min Rain = 0
KAHS 111818Z 16013KT 35/14 A3008 RMK A01 T03450142  RH  030%=      5-min Rain = 0
KAHS 111819Z 17014KT 34/14 A3008 RMK A01 T03440141  RH  030%=      5-min Rain = 0
KAHS 111820Z 16011KT 34/14 A3008 RMK A01 T03430142  RH  030%=      5-min Rain = 0
KAHS 111821Z 17009KT 34/14 A3008 RMK A01 T03410140  RH  030%=      5-min Rain = 0
KAHS 111822Z 16012G17KT 34/14 A3008 RMK A01 T03400141  RH  030%=      5-min Rain = 0
KAHS 111823Z 17014KT 34/14 A3008 RMK A01 T03420138  RH  029%=      5-min Rain = 0
KAHS 111824Z 18012KT 34/14 A3008 RMK A01 T03430137  RH  029%=      5-min Rain = 0
KAHS 111825Z 20012KT 34/14 A3008 RMK A01 T03430136  RH  029%=      5-min Rain = 0
KAHS 111826Z 20009KT 34/14 A3008 RMK A01 T03410135  RH  029%=      5-min Rain = 0
KAHS 111827Z 18011G16KT 34/14 A3008 RMK A01 T03400136  RH  029%=      5-min Rain = 0
KAHS 111828Z 16011G16KT 34/14 A3008 RMK A01 T03410136  RH  029%=      5-min Rain = 0
KAHS 111829Z 13009KT 34/14 A3008 RMK A01 T03440138  RH  029%=      5-min Rain = 0
KAHS 111830Z 14011KT 35/14 A3008 RMK A01 T03470140  RH  029%=      5-min Rain = 0
KAHS 111831Z 17014KT 35/14 A3008 RMK A01 T03480141  RH  029%=      5-min Rain = 0
KAHS 111832Z 17014KT 35/14 A3008 RMK A01 T03510141  RH  029%=      5-min Rain = 0
KAHS 111833Z 18011KT 35/14 A3008 RMK A01 T03490139  RH  028%=      5-min Rain = 0
KAHS 111834Z 18011KT 35/14 A3008 RMK A01 T03500139  RH  028%=      5-min Rain = 0
KAHS 111835Z 18012KT 35/13 A3008 RMK A01 T03500133  RH  027%=      5-min Rain = 0
KAHS 111836Z 19012G18KT 35/13 A3008 RMK A01 T03490134  RH  027%=      5-min Rain = 0
KAHS 111837Z 18016KT 35/14 A3007 RMK A01 T03500136  RH  028%=      5-min Rain = 0
KAHS 111838Z 17014KT 35/14 A3008 RMK A01 T03450139  RH  029%=      5-min Rain = 0
KAHS 111839Z 18010KT 35/14 A3008 RMK A01 T03480141  RH  029%=      5-min Rain = 0
KAHS 111840Z 20009KT 35/14 A3008 RMK A01 T03490139  RH  028%=      5-min Rain = 0
KAHS 111841Z 19009KT 35/14 A3007 RMK A01 T03480137  RH  028%=      5-min Rain = 0
KAHS 111842Z 18010KT 34/14 A3007 RMK A01 T03440136  RH  029%=      5-min Rain = 0
KAHS 111843Z 17012KT 34/14 A3007 RMK A01 T03420138  RH  029%=      5-min Rain = 0
KAHS 111844Z 16012G17KT 35/14 A3007 RMK A01 T03450142  RH  030%=      5-min Rain = 0
KAHS 111845Z 17014KT 35/14 A3007 RMK A01 T03460144  RH  030%=      5-min Rain = 0
KAHS 111846Z 17011G16KT 34/14 A3007 RMK A01 T03430144  RH  030%=      5-min Rain = 0
KAHS 111847Z 16009KT 34/15 A3007 RMK A01 T03400145  RH  031%=      5-min Rain = 0
KAHS 111848Z 15007KT 34/14 A3007 RMK A01 T03390142  RH  031%=      5-min Rain = 0
KAHS 111849Z 17007KT 34/14 A3007 RMK A01 T03380144  RH  031%=      5-min Rain = 0
KAHS 111850Z 17009KT 34/15 A3007 RMK A01 T03410146  RH  031%=      5-min Rain = 0
KAHS 111851Z 17012KT 35/14 A3007 RMK A01 T03450144  RH  030%=      5-min Rain = 0
KAHS 111852Z 17010KT 35/14 A3007 RMK A01 T03470142  RH  029%=      5-min Rain = 0
KAHS 111853Z 17012KT 35/14 A3007 RMK A01 T03520135  RH  027%=      5-min Rain = 0
KAHS 111854Z 19014KT 35/14 A3007 RMK A01 T03510138  RH  028%=      5-min Rain = 0
KAHS 111855Z 19009KT 35/14 A3007 RMK A01 T03490141  RH  029%=      5-min Rain = 0
KAHS 111856Z 19011KT 35/14 A3007 RMK A01 T03520143  RH  029%=      5-min Rain = 0
KAHS 111857Z 18013G18KT 35/14 A3007 RMK A01 T03530142  RH  028%=      5-min Rain = 0
KAHS 111858Z 20011KT 35/14 A3007 RMK A01 T03510140  RH  028%=      5-min Rain = 0
KAHS 111859Z 20010KT 35/14 A3007 RMK A01 T03500139  RH  028%=      5-min Rain = 0
KAHS 111900Z 19012KT 35/14 A3007 RMK A01 T03470139  RH  029%=      5-min Rain = 0
KAHS 111901Z 19014KT 35/13 A3007 RMK A01 T03470133  RH  028%=      5-min Rain = 0
KAHS 111902Z 18016KT 35/13 A3007 RMK A01 T03480130  RH  027%=      5-min Rain = 0
KAHS 111903Z 16011KT 35/13 A3007 RMK A01 T03510128  RH  026%=      5-min Rain = 0
KAHS 111904Z 17013KT 35/13 A3007 RMK A01 T03510125  RH  025%=      5-min Rain = 0
KAHS 111905Z 18011G18KT 35/12 A3006 RMK A01 T03490123  RH  025%=      5-min Rain = 0
KAHS 111906Z 18017G22KT 35/13 A3006 RMK A01 T03490130  RH  027%=      5-min Rain = 0
KAHS 111907Z 19015G20KT 35/14 A3006 RMK A01 T03480136  RH  028%=      5-min Rain = 0
KAHS 111908Z 18013G18KT 35/14 A3006 RMK A01 T03470136  RH  028%=      5-min Rain = 0
KAHS 111909Z 18009KT 35/14 A3006 RMK A01 T03460136  RH  028%=      5-min Rain = 0
KAHS 111910Z 17006KT 35/14 A3006 RMK A01 T03450136  RH  028%=      5-min Rain = 0
KAHS 111911Z 19013G19KT 35/13 A3006 RMK A01 T03490134  RH  027%=      5-min Rain = 0
KAHS 111912Z 17016KT 35/13 A3006 RMK A01 T03490129  RH  027%=      5-min Rain = 0
KAHS 111913Z 17016KT 35/13 A3006 RMK A01 T03490130  RH  027%=      5-min Rain = 0
KAHS 111914Z 18015KT 35/13 A3006 RMK A01 T03490127  RH  026%=      5-min Rain = 0
KAHS 111915Z 17019KT 35/12 A3006 RMK A01 T03490122  RH  025%=      5-min Rain = 0
KAHS 111916Z 17016KT 35/13 A3006 RMK A01 T03470126  RH  026%=      5-min Rain = 0
KAHS 111917Z 16016KT 35/13 A3006 RMK A01 T03490134  RH  027%=      5-min Rain = 0
KAHS 111918Z 16014KT 35/14 A3006 RMK A01 T03480136  RH  028%=      5-min Rain = 0
KAHS 111919Z 18015KT 35/13 A3006 RMK A01 T03480134  RH  028%=      5-min Rain = 0
KAHS 111920Z 17014KT 35/13 A3006 RMK A01 T03460128  RH  027%=      5-min Rain = 0
KAHS 111921Z 18011KT 35/13 A3006 RMK A01 T03460129  RH  027%=      5-min Rain = 0
KAHS 111922Z 18011KT 35/13 A3006 RMK A01 T03520127  RH  026%=      5-min Rain = 0
KAHS 111923Z 19011KT 35/13 A3006 RMK A01 T03500126  RH  026%=      5-min Rain = 0
KAHS 111924Z 19007KT 35/13 A3006 RMK A01 T03480130  RH  027%=      5-min Rain = 0
KAHS 111925Z 19007KT 35/13 A3006 RMK A01 T03500131  RH  027%=      5-min Rain = 0
KAHS 111926Z 16009KT 35/13 A3006 RMK A01 T03510131  RH  027%=      5-min Rain = 0
KAHS 111927Z 18018KT 35/13 A3006 RMK A01 T03490128  RH  026%=      5-min Rain = 0
KAHS 111928Z 19014KT 35/13 A3006 RMK A01 T03450125  RH  027%=      5-min Rain = 0
KAHS 111929Z 20010KT 35/12 A3006 RMK A01 T03450124  RH  026%=      5-min Rain = 0
KAHS 111930Z 19011KT 35/13 A3006 RMK A01 T03500125  RH  026%=      5-min Rain = 0
KAHS 111931Z 16010KT 35/13 A3006 RMK A01 T03520126  RH  026%=      5-min Rain = 0
KAHS 111932Z 17013KT 35/13 A3005 RMK A01 T03530126  RH  025%=      5-min Rain = 0
KAHS 111933Z 17013KT 35/13 A3005 RMK A01 T03520128  RH  026%=      5-min Rain = 0
KAHS 111934Z 16012KT 35/13 A3005 RMK A01 T03510130  RH  027%=      5-min Rain = 0
KAHS 111935Z 17012KT 35/13 A3005 RMK A01 T03470132  RH  027%=      5-min Rain = 0
KAHS 111936Z 18015G21KT 34/13 A3005 RMK A01 T03440133  RH  028%=      5-min Rain = 0
KAHS 111937Z 18013KT 34/13 A3005 RMK A01 T03440133  RH  028%=      5-min Rain = 0
KAHS 111938Z 16013KT 34/13 A3005 RMK A01 T03440132  RH  028%=      5-min Rain = 0
KAHS 111939Z 16012KT 34/13 A3005 RMK A01 T03410132  RH  028%=      5-min Rain = 0
KAHS 111940Z 15014KT 34/13 A3005 RMK A01 T03390134  RH  029%=      5-min Rain = 0
KAHS 111941Z 18010KT 34/13 A3005 RMK A01 T03420134  RH  029%=      5-min Rain = 0
KAHS 111942Z 18010KT 35/12 A3005 RMK A01 T03450123  RH  026%=      5-min Rain = 0
KAHS 111943Z 20009G14KT 35/12 A3005 RMK A01 T03510123  RH  025%=      5-min Rain = 0
KAHS 111944Z 18010KT 36/12 A3005 RMK A01 T03550120  RH  024%=      5-min Rain = 0
KAHS 111945Z 18012KT 36/13 A3005 RMK A01 T03550125  RH  025%=      5-min Rain = 0
KAHS 111946Z 18011KT 36/13 A3005 RMK A01 T03550128  RH  026%=      5-min Rain = 0
KAHS 111947Z 17013KT 36/13 A3005 RMK A01 T03580131  RH  026%=      5-min Rain = 0
KAHS 111948Z 17017KT 36/13 A3005 RMK A01 T03570125  RH  025%=      5-min Rain = 0
KAHS 111949Z 17017KT 35/12 A3004 RMK A01 T03530119  RH  024%=      5-min Rain = 0
KAHS 111950Z 18012KT 35/12 A3004 RMK A01 T03520123  RH  025%=      5-min Rain = 0
KAHS 111951Z 18015KT 35/12 A3004 RMK A01 T03540122  RH  025%=      5-min Rain = 0
KAHS 111952Z 18015KT 35/12 A3004 RMK A01 T03500119  RH  025%=      5-min Rain = 0
KAHS 111953Z 19014KT 35/12 A3004 RMK A01 T03500120  RH  025%=      5-min Rain = 0
KAHS 111954Z 19012KT 35/12 A3004 RMK A01 T03510123  RH  025%=      5-min Rain = 0
KAHS 111955Z 20014G19KT 35/12 A3004 RMK A01 T03530122  RH  025%=      5-min Rain = 0
KAHS 111956Z 19014KT 35/13 A3004 RMK A01 T03530125  RH  025%=      5-min Rain = 0
KAHS 111957Z 19014G19KT 35/13 A3004 RMK A01 T03530125  RH  025%=      5-min Rain = 0
KAHS 111958Z 18013KT 35/13 A3004 RMK A01 T03540125  RH  025%=      5-min Rain = 0
KAHS 111959Z 19009G14KT 35/12 A3004 RMK A01 T03540124  RH  025%=      5-min Rain = 0
KAHS 112000Z 18010KT 36/13 A3004 RMK A01 T03570126  RH  025%=      5-min Rain = 0
KAHS 112001Z 18012G17KT 36/13 A3004 RMK A01 T03550125  RH  025%=      5-min Rain = 0
KAHS 112002Z 19019KT 35/12 A3004 RMK A01 T03530120  RH  025%=      5-min Rain = 0
KAHS 112003Z 17016KT 35/12 A3004 RMK A01 T03500119  RH  025%=      5-min Rain = 0
KAHS 112004Z 16012KT 35/12 A3004 RMK A01 T03490120  RH  025%=      5-min Rain = 0
KAHS 112005Z 13010KT 35/12 A3004 RMK A01 T03480119  RH  025%=      5-min Rain = 0
KAHS 112006Z 16008KT 35/12 A3003 RMK A01 T03470120  RH  025%=      5-min Rain = 0
KAHS 112007Z 16014G19KT 35/12 A3003 RMK A01 T03520122  RH  025%=      5-min Rain = 0
KAHS 112008Z 22012KT 36/12 A3003 RMK A01 T03560120  RH  024%=      5-min Rain = 0
KAHS 112009Z 20016G21KT 36/12 A3003 RMK A01 T03560119  RH  024%=      5-min Rain = 0
KAHS 112010Z 20019G25KT 36/12 A3003 RMK A01 T03550121  RH  024%=      5-min Rain = 0
KAHS 112011Z 19011G17KT 35/12 A3003 RMK A01 T03490122  RH  025%=      5-min Rain = 0
KAHS 112012Z 21012G17KT 35/12 A3003 RMK A01 T03500122  RH  025%=      5-min Rain = 0
KAHS 112013Z 19014KT 35/12 A3003 RMK A01 T03540120  RH  024%=      5-min Rain = 0
KAHS 112014Z 20010KT 35/12 A3003 RMK A01 T03530119  RH  024%=      5-min Rain = 0
KAHS 112015Z 20011KT 35/12 A3003 RMK A01 T03510120  RH  025%=      5-min Rain = 0
KAHS 112016Z 20012KT 35/12 A3003 RMK A01 T03520120  RH  025%=      5-min Rain = 0
KAHS 112017Z 22010G16KT 36/12 A3003 RMK A01 T03550120  RH  024%=      5-min Rain = 0
KAHS 112018Z 21011G16KT 36/12 A3003 RMK A01 T03560120  RH  024%=      5-min Rain = 0
KAHS 112019Z 20014KT 36/12 A3003 RMK A01 T03590120  RH  024%=      5-min Rain = 0
KAHS 112020Z 19015KT 36/12 A3003 RMK A01 T03600123  RH  024%=      5-min Rain = 0
KAHS 112021Z 18014G21KT 36/12 A3003 RMK A01 T03580122  RH  024%=      5-min Rain = 0
KAHS 112022Z 17013KT 35/12 A3003 RMK A01 T03530122  RH  025%=      5-min Rain = 0
KAHS 112023Z 18013G18KT 35/13 A3003 RMK A01 T03540126  RH  025%=      5-min Rain = 0
KAHS 112024Z 19012KT 36/13 A3003 RMK A01 T03560127  RH  025%=      5-min Rain = 0
KAHS 112025Z 20012G17KT 36/13 A3003 RMK A01 T03560128  RH  025%=      5-min Rain = 0
KAHS 112026Z 20013KT 36/12 A3003 RMK A01 T03560123  RH  025%=      5-min Rain = 0
KAHS 112027Z 20014KT 35/12 A3003 RMK A01 T03530123  RH  025%=      5-min Rain = 0
KAHS 112028Z 20010G15KT 35/12 A3003 RMK A01 T03520123  RH  025%=      5-min Rain = 0
KAHS 112029Z 22013KT 36/12 A3002 RMK A01 T03550122  RH  025%=      5-min Rain = 0
KAHS 112030Z 22012KT 36/12 A3002 RMK A01 T03550121  RH  024%=      5-min Rain = 0
KAHS 112031Z 22010KT 35/12 A3002 RMK A01 T03530122  RH  025%=      5-min Rain = 0
KAHS 112032Z 22014KT 35/12 A3002 RMK A01 T03540123  RH  025%=      5-min Rain = 0
KAHS 112033Z 21013KT 35/12 A3002 RMK A01 T03510123  RH  025%=      5-min Rain = 0
KAHS 112034Z 21010KT 35/13 A3002 RMK A01 T03510125  RH  026%=      5-min Rain = 0
KAHS 112035Z 21008KT 36/13 A3002 RMK A01 T03580128  RH  025%=      5-min Rain = 0
KAHS 112036Z 19015KT 36/13 A3002 RMK A01 T03610127  RH  024%=      5-min Rain = 0
KAHS 112037Z 17010G15KT 36/13 A3002 RMK A01 T03570129  RH  025%=      5-min Rain = 0
KAHS 112038Z 20009KT 36/13 A3002 RMK A01 T03620130  RH  025%=      5-min Rain = 0
KAHS 112039Z 21016KT 37/13 A3002 RMK A01 T03650127  RH  024%=      5-min Rain = 0
KAHS 112040Z 21017KT 36/13 A3002 RMK A01 T03590125  RH  025%=      5-min Rain = 0
KAHS 112041Z 21016KT 35/12 A3002 RMK A01 T03540123  RH  025%=      5-min Rain = 0
KAHS 112042Z 20012KT 35/12 A3002 RMK A01 T03530124  RH  025%=      5-min Rain = 0
KAHS 112043Z 19008KT 35/12 A3002 RMK A01 T03520123  RH  025%=      5-min Rain = 0
KAHS 112044Z 18008KT 35/12 A3002 RMK A01 T03540124  RH  025%=      5-min Rain = 0
KAHS 112045Z 18008KT 36/13 A3002 RMK A01 T03560125  RH  025%=      5-min Rain = 0
KAHS 112046Z 18009KT 36/13 A3002 RMK A01 T03580125  RH  025%=      5-min Rain = 0
KAHS 112047Z 16009KT 36/13 A3002 RMK A01 T03620125  RH  024%=      5-min Rain = 0
KAHS 112048Z 17009KT 36/13 A3002 RMK A01 T03630125  RH  024%=      5-min Rain = 0
KAHS 112049Z 17010G17KT 37/13 A3002 RMK A01 T03650127  RH  024%=      5-min Rain = 0
KAHS 112050Z 18010KT 36/12 A3002 RMK A01 T03630124  RH  024%=      5-min Rain = 0
KAHS 112051Z 19009KT 36/12 A3002 RMK A01 T03570124  RH  025%=      5-min Rain = 0
KAHS 112052Z 19014G19KT 35/13 A3002 RMK A01 T03530125  RH  025%=      5-min Rain = 0
KAHS 112053Z 19015KT 35/12 A3002 RMK A01 T03490124  RH  026%=      5-min Rain = 0
KAHS 112054Z 19013KT 35/13 A3002 RMK A01 T03500125  RH  026%=      5-min Rain = 0
KAHS 112055Z 20012G17KT 35/13 A3001 RMK A01 T03520125  RH  025%=      5-min Rain = 0
KAHS 112056Z 20012G17KT 35/12 A3001 RMK A01 T03530122  RH  025%=      5-min Rain = 0
KAHS 112057Z 19008KT 36/12 A3002 RMK A01 T03550123  RH  025%=      5-min Rain = 0
KAHS 112058Z 18007KT 36/12 A3001 RMK A01 T03600122  RH  024%=      5-min Rain = 0
KAHS 112059Z 20007KT 36/12 A3001 RMK A01 T03600122  RH  024%=      5-min Rain = 0
KAHS 112100Z 20008G13KT 36/12 A3001 RMK A01 T03590122  RH  024%=      5-min Rain = 0
KAHS 112101Z 15010KT 36/12 A3001 RMK A01 T03610122  RH  024%=      5-min Rain = 0
KAHS 112102Z 15012KT 36/12 A3001 RMK A01 T03620120  RH  023%=      5-min Rain = 0
KAHS 112103Z 14014KT 36/12 A3001 RMK A01 T03630120  RH  023%=      5-min Rain = 0
KAHS 112104Z 15011KT 36/12 A3001 RMK A01 T03630119  RH  023%=      5-min Rain = 0
KAHS 112105Z 15008G13KT 36/12 A3001 RMK A01 T03630121  RH  023%=      5-min Rain = 0
KAHS 112106Z 16010KT 36/12 A3001 RMK A01 T03640119  RH  023%=      5-min Rain = 0
KAHS 112107Z 16012KT 36/12 A3001 RMK A01 T03630118  RH  023%=      5-min Rain = 0
KAHS 112108Z 16008KT 36/12 A3001 RMK A01 T03620121  RH  023%=      5-min Rain = 0
KAHS 112109Z 18008KT 37/12 A3001 RMK A01 T03650123  RH  023%=      5-min Rain = 0
KAHS 112110Z 19007G12KT 37/12 A3001 RMK A01 T03680123  RH  023%=      5-min Rain = 0
KAHS 112111Z 19010KT 37/12 A3001 RMK A01 T03650120  RH  023%=      5-min Rain = 0
KAHS 112112Z 21008KT 36/12 A3001 RMK A01 T03620122  RH  024%=      5-min Rain = 0
KAHS 112113Z 20009G14KT 36/12 A30 RMK A01 T03600121  RH  024%=      5-min Rain = 0
KAHS 112114Z 18014KT 36/12 A30 RMK A01 T03580121  RH  024%=      5-min Rain = 0
KAHS 112115Z 18016G21KT 36/12 A30 RMK A01 T03570121  RH  024%=      5-min Rain = 0
KAHS 112116Z 20011KT 36/12 A30 RMK A01 T03600124  RH  024%=      5-min Rain = 0
KAHS 112117Z 20010KT 36/12 A30 RMK A01 T03640124  RH  024%=      5-min Rain = 0
KAHS 112118Z 20009KT 36/12 A30 RMK A01 T03640122  RH  023%=      5-min Rain = 0
KAHS 112119Z 20010KT 36/12 A30 RMK A01 T03640123  RH  024%=      5-min Rain = 0
KAHS 112120Z 21010KT 37/12 A30 RMK A01 T03650122  RH  023%=      5-min Rain = 0
KAHS 112121Z 21010KT 36/12 A30 RMK A01 T03610119  RH  023%=      5-min Rain = 0
KAHS 112122Z 21008KT 36/12 A30 RMK A01 T03570116  RH  023%=      5-min Rain = 0
KAHS 112123Z 20007KT 36/12 A30 RMK A01 T03550119  RH  024%=      5-min Rain = 0
KAHS 112124Z 17012KT 36/12 A30 RMK A01 T03570121  RH  024%=      5-min Rain = 0
KAHS 112125Z 17009KT 36/12 A30 RMK A01 T03630123  RH  024%=      5-min Rain = 0
KAHS 112126Z 18012KT 37/12 A30 RMK A01 T03660121  RH  023%=      5-min Rain = 0
KAHS 112127Z 16011KT 36/12 A30 RMK A01 T03610122  RH  024%=      5-min Rain = 0
KAHS 112128Z 18010KT 36/12 A30 RMK A01 T03620121  RH  023%=      5-min Rain = 0
KAHS 112129Z 19013KT 36/12 A30 RMK A01 T03610121  RH  024%=      5-min Rain = 0
KAHS 112130Z 17009KT 36/13 A30 RMK A01 T03590125  RH  024%=      5-min Rain = 0
KAHS 112131Z 15007KT 36/13 A30 RMK A01 T03620128  RH  024%=      5-min Rain = 0
KAHS 112132Z 16009KT 36/13 A30 RMK A01 T03620126  RH  024%=      5-min Rain = 0
KAHS 112133Z 18010KT 36/13 A30 RMK A01 T03600126  RH  024%=      5-min Rain = 0
KAHS 112134Z 15011G17KT 36/13 A30 RMK A01 T03610129  RH  025%=      5-min Rain = 0
KAHS 112135Z 17013G18KT 36/13 A30 RMK A01 T03580128  RH  025%=      5-min Rain = 0
KAHS 112136Z 16009KT 35/13 A30 RMK A01 T03540127  RH  026%=      5-min Rain = 0
KAHS 112137Z 17010KT 36/13 A30 RMK A01 T03550127  RH  025%=      5-min Rain = 0
KAHS 112138Z 17008KT 35/13 A30 RMK A01 T03530127  RH  026%=      5-min Rain = 0
KAHS 112139Z 16006KT 35/13 A2999 RMK A01 T03510129  RH  026%=      5-min Rain = 0
KAHS 112140Z 17006KT 35/13 A2999 RMK A01 T03520131  RH  026%=      5-min Rain = 0
KAHS 112141Z 17009KT 35/13 A2999 RMK A01 T03520133  RH  027%=      5-min Rain = 0
KAHS 112142Z 15013G18KT 35/14 A2999 RMK A01 T03530136  RH  027%=      5-min Rain = 0
KAHS 112143Z 17012KT 35/14 A2999 RMK A01 T03510137  RH  028%=      5-min Rain = 0
KAHS 112144Z 18009KT 35/14 A2999 RMK A01 T03500136  RH  028%=      5-min Rain = 0
KAHS 112145Z 16011KT 35/14 A2999 RMK A01 T03490137  RH  028%=      5-min Rain = 0
KAHS 112146Z 15013KT 35/14 A2999 RMK A01 T03490139  RH  028%=      5-min Rain = 0
KAHS 112147Z 14013KT 35/14 A2999 RMK A01 T03470135  RH  028%=      5-min Rain = 0
KAHS 112148Z 14013KT 35/13 A2999 RMK A01 T03450134  RH  028%=      5-min Rain = 0
KAHS 112149Z 14010KT 35/14 A2999 RMK A01 T03460135  RH  028%=      5-min Rain = 0
KAHS 112150Z 14011KT 35/13 A2999 RMK A01 T03490134  RH  027%=      5-min Rain = 0
KAHS 112151Z 14009KT 35/13 A2999 RMK A01 T03520133  RH  027%=      5-min Rain = 0
KAHS 112152Z 14009KT 35/13 A2999 RMK A01 T03520134  RH  027%=      5-min Rain = 0
KAHS 112153Z 13007KT 35/14 A2999 RMK A01 T03540135  RH  027%=      5-min Rain = 0
KAHS 112154Z 14007KT 35/14 A2999 RMK A01 T03530135  RH  027%=      5-min Rain = 0
KAHS 112155Z 17008G13KT 35/14 A2999 RMK A01 T03520135  RH  027%=      5-min Rain = 0
KAHS 112156Z 17010KT 35/14 A2999 RMK A01 T03520136  RH  027%=      5-min Rain = 0
KAHS 112157Z 17012KT 35/14 A2999 RMK A01 T03500136  RH  028%=      5-min Rain = 0
KAHS 112158Z 15013KT 35/14 A2999 RMK A01 T03500135  RH  028%=      5-min Rain = 0
KAHS 112159Z 15013KT 35/13 A2999 RMK A01 T03470133  RH  028%=      5-min Rain = 0
KAHS 112200Z 16012KT 35/14 A2999 RMK A01 T03470135  RH  028%=      5-min Rain = 0
KAHS 112201Z 16009KT 35/13 A2999 RMK A01 T03460132  RH  028%=      5-min Rain = 0
KAHS 112202Z 15009KT 35/13 A2999 RMK A01 T03470133  RH  028%=      5-min Rain = 0
KAHS 112203Z 14010KT 35/13 A2999 RMK A01 T03460133  RH  028%=      5-min Rain = 0
KAHS 112204Z 15009KT 35/14 A2999 RMK A01 T03450137  RH  029%=      5-min Rain = 0
KAHS 112205Z 16009KT 35/14 A2999 RMK A01 T03450138  RH  029%=      5-min Rain = 0
KAHS 112206Z 15009KT 35/14 A2998 RMK A01 T03490139  RH  029%=      5-min Rain = 0
KAHS 112207Z 16009KT 35/14 A2998 RMK A01 T03530140  RH  028%=      5-min Rain = 0
KAHS 112208Z 16010KT 36/14 A2998 RMK A01 T03560139  RH  027%=      5-min Rain = 0
KAHS 112209Z 17010KT 36/14 A2998 RMK A01 T03560138  RH  027%=      5-min Rain = 0
KAHS 112210Z 15012G17KT 35/14 A2998 RMK A01 T03530135  RH  027%=      5-min Rain = 0
KAHS 112211Z 17011G16KT 35/13 A2998 RMK A01 T03520130  RH  026%=      5-min Rain = 0
KAHS 112212Z 18011KT 35/13 A2998 RMK A01 T03510128  RH  026%=      5-min Rain = 0
KAHS 112213Z 17013KT 35/13 A2998 RMK A01 T03530129  RH  026%=      5-min Rain = 0
KAHS 112214Z 17011KT 36/13 A2998 RMK A01 T03560127  RH  025%=      5-min Rain = 0
KAHS 112215Z 18010KT 36/13 A2998 RMK A01 T03570125  RH  025%=      5-min Rain = 0
KAHS 112216Z 18010KT 36/13 A2998 RMK A01 T03550126  RH  025%=      5-min Rain = 0
KAHS 112217Z 18012KT 35/13 A2998 RMK A01 T03530126  RH  025%=      5-min Rain = 0
KAHS 112218Z 18013KT 35/13 A2998 RMK A01 T03510126  RH  026%=      5-min Rain = 0
KAHS 112219Z 18013KT 35/13 A2998 RMK A01 T03490127  RH  026%=      5-min Rain = 0
KAHS 112220Z 18011KT 35/13 A2998 RMK A01 T03490129  RH  027%=      5-min Rain = 0
KAHS 112221Z 19010KT 35/13 A2998 RMK A01 T03510130  RH  027%=      5-min Rain = 0
KAHS 112222Z 19012KT 35/13 A2998 RMK A01 T03530131  RH  026%=      5-min Rain = 0
KAHS 112223Z 17012KT 35/13 A2998 RMK A01 T03520132  RH  027%=      5-min Rain = 0
KAHS 112224Z 16011G16KT 35/14 A2998 RMK A01 T03500135  RH  028%=      5-min Rain = 0
KAHS 112225Z 16010KT 35/14 A2998 RMK A01 T03490136  RH  028%=      5-min Rain = 0
KAHS 112226Z 16009KT 35/14 A2998 RMK A01 T03500137  RH  028%=      5-min Rain = 0
KAHS 112227Z 17010G15KT 35/14 A2998 RMK A01 T03530136  RH  027%=      5-min Rain = 0
KAHS 112228Z 19010KT 36/13 A2998 RMK A01 T03560134  RH  026%=      5-min Rain = 0
KAHS 112229Z 19012KT 36/13 A2998 RMK A01 T03550131  RH  026%=      5-min Rain = 0
KAHS 112230Z 19012KT 35/13 A2998 RMK A01 T03500133  RH  027%=      5-min Rain = 0
KAHS 112231Z 19011KT 35/13 A2998 RMK A01 T03490134  RH  027%=      5-min Rain = 0
KAHS 112232Z 19010G15KT 35/13 A2998 RMK A01 T03480133  RH  027%=      5-min Rain = 0
KAHS 112233Z 18010KT 35/13 A2998 RMK A01 T03480134  RH  028%=      5-min Rain = 0
KAHS 112234Z 17011KT 35/13 A2998 RMK A01 T03490134  RH  027%=      5-min Rain = 0
KAHS 112235Z 18009KT 35/13 A2998 RMK A01 T03510132  RH  027%=      5-min Rain = 0
KAHS 112236Z 20014KT 35/13 A2998 RMK A01 T03530132  RH  026%=      5-min Rain = 0
KAHS 112237Z 20013G18KT 35/13 A2998 RMK A01 T03540129  RH  026%=      5-min Rain = 0
KAHS 112238Z 19016KT 35/13 A2997 RMK A01 T03540129  RH  026%=      5-min Rain = 0
KAHS 112239Z 18012KT 36/13 A2998 RMK A01 T03560129  RH  025%=      5-min Rain = 0
KAHS 112240Z 18011KT 36/13 A2998 RMK A01 T03580129  RH  025%=      5-min Rain = 0
KAHS 112241Z 19010KT 36/13 A2997 RMK A01 T03610129  RH  025%=      5-min Rain = 0
KAHS 112242Z 20010KT 36/13 A2997 RMK A01 T03630128  RH  025%=      5-min Rain = 0
KAHS 112243Z 20010KT 36/13 A2997 RMK A01 T03610127  RH  025%=      5-min Rain = 0
KAHS 112244Z 20010KT 36/13 A2997 RMK A01 T03590127  RH  025%=      5-min Rain = 0
KAHS 112245Z 20010KT 36/13 A2997 RMK A01 T03580128  RH  025%=      5-min Rain = 0
KAHS 112246Z 18013KT 36/13 A2997 RMK A01 T03570128  RH  025%=      5-min Rain = 0
KAHS 112247Z 17010KT 36/13 A2997 RMK A01 T03550131  RH  026%=      5-min Rain = 0
KAHS 112248Z 17010KT 36/13 A2997 RMK A01 T03570132  RH  026%=      5-min Rain = 0
KAHS 112249Z 17012KT 36/14 A2997 RMK A01 T03580136  RH  026%=      5-min Rain = 0
KAHS 112250Z 18012KT 36/13 A2997 RMK A01 T03590129  RH  025%=      5-min Rain = 0
KAHS 112251Z 18009KT 36/13 A2997 RMK A01 T03590129  RH  025%=      5-min Rain = 0
KAHS 112252Z 18010KT 36/13 A2997 RMK A01 T03600130  RH  025%=      5-min Rain = 0
KAHS 112253Z 20010KT 36/13 A2997 RMK A01 T03560128  RH  025%=      5-min Rain = 0
KAHS 112254Z 19010KT 35/13 A2997 RMK A01 T03520129  RH  026%=      5-min Rain = 0
KAHS 112255Z 18011KT 35/13 A2997 RMK A01 T03500129  RH  027%=      5-min Rain = 0
KAHS 112256Z 18011KT 35/13 A2997 RMK A01 T03500130  RH  027%=      5-min Rain = 0
KAHS 112257Z 19009KT 35/13 A2997 RMK A01 T03490130  RH  027%=      5-min Rain = 0
KAHS 112258Z 19008KT 35/13 A2997 RMK A01 T03480130  RH  027%=      5-min Rain = 0
KAHS 112259Z 18008KT 35/13 A2997 RMK A01 T03470131  RH  027%=      5-min Rain = 0
KAHS 112300Z 18012KT 35/13 A2997 RMK A01 T03480131  RH  027%=      5-min Rain = 0
KAHS 112301Z 19011KT 35/13 A2997 RMK A01 T03510130  RH  027%=      5-min Rain = 0
KAHS 112302Z 19011KT 35/13 A2997 RMK A01 T03530129  RH  026%=      5-min Rain = 0
KAHS 112303Z 19011KT 35/13 A2997 RMK A01 T03530128  RH  026%=      5-min Rain = 0
KAHS 112304Z 18012KT 35/13 A2997 RMK A01 T03520129  RH  026%=      5-min Rain = 0
KAHS 112305Z 17010KT 35/13 A2997 RMK A01 T03540128  RH  026%=      5-min Rain = 0
KAHS 112306Z 20010KT 36/13 A2997 RMK A01 T03550128  RH  026%=      5-min Rain = 0
KAHS 112307Z 20009KT 36/13 A2997 RMK A01 T03570128  RH  025%=      5-min Rain = 0
KAHS 112308Z 18010G15KT 36/13 A2997 RMK A01 T03590129  RH  025%=      5-min Rain = 0
KAHS 112309Z 17013KT 36/13 A2997 RMK A01 T03600128  RH  025%=      5-min Rain = 0
KAHS 112310Z 18013KT 36/13 A2997 RMK A01 T03590127  RH  025%=      5-min Rain = 0
KAHS 112311Z 18011KT 36/13 A2997 RMK A01 T03550126  RH  025%=      5-min Rain = 0
KAHS 112312Z 18014KT 35/13 A2997 RMK A01 T03530127  RH  026%=      5-min Rain = 0
KAHS 112313Z 18015KT 35/13 A2997 RMK A01 T03520127  RH  026%=      5-min Rain = 0
KAHS 112314Z 18010KT 35/13 A2997 RMK A01 T03520127  RH  026%=      5-min Rain = 0
KAHS 112315Z 17008KT 35/13 A2997 RMK A01 T03520127  RH  026%=      5-min Rain = 0
KAHS 112316Z 18008KT 35/13 A2997 RMK A01 T03520127  RH  026%=      5-min Rain = 0
KAHS 112317Z 19007KT 35/13 A2997 RMK A01 T03500127  RH  026%=      5-min Rain = 0
KAHS 112318Z 17011G16KT 35/13 A2997 RMK A01 T03490128  RH  026%=      5-min Rain = 0
KAHS 112319Z 18014KT 35/13 A2997 RMK A01 T03480127  RH  026%=      5-min Rain = 0
KAHS 112320Z 17014KT 35/13 A2997 RMK A01 T03470127  RH  026%=      5-min Rain = 0
KAHS 112321Z 18011KT 35/13 A2997 RMK A01 T03460127  RH  027%=      5-min Rain = 0
KAHS 112322Z 19007KT 35/13 A2997 RMK A01 T03460127  RH  027%=      5-min Rain = 0
KAHS 112323Z 18009KT 35/13 A2997 RMK A01 T03460127  RH  027%=      5-min Rain = 0
KAHS 112324Z 16011KT 35/13 A2997 RMK A01 T03460128  RH  027%=      5-min Rain = 0
KAHS 112325Z 15014KT 35/13 A2997 RMK A01 T03470130  RH  027%=      5-min Rain = 0
KAHS 112326Z 15013KT 35/13 A2997 RMK A01 T03460128  RH  027%=      5-min Rain = 0
KAHS 112327Z 15010KT 34/13 A2997 RMK A01 T03440128  RH  027%=      5-min Rain = 0
KAHS 112328Z 15009KT 34/13 A2997 RMK A01 T03440129  RH  027%=      5-min Rain = 0
KAHS 112329Z 14010KT 35/13 A2997 RMK A01 T03460130  RH  027%=      5-min Rain = 0
KAHS 112330Z 16010KT 35/13 A2997 RMK A01 T03480130  RH  027%=      5-min Rain = 0
KAHS 112331Z 16011KT 35/13 A2997 RMK A01 T03490131  RH  027%=      5-min Rain = 0
KAHS 112332Z 16010KT 35/13 A2997 RMK A01 T03500131  RH  027%=      5-min Rain = 0
KAHS 112333Z 15010KT 35/13 A2997 RMK A01 T03490133  RH  027%=      5-min Rain = 0
KAHS 112334Z 17010KT 35/14 A2997 RMK A01 T03490135  RH  028%=      5-min Rain = 0
KAHS 112335Z 16009KT 35/13 A2997 RMK A01 T03490132  RH  027%=      5-min Rain = 0
KAHS 112336Z 16013KT 35/13 A2997 RMK A01 T03500133  RH  027%=      5-min Rain = 0
KAHS 112337Z 16012KT 35/13 A2997 RMK A01 T03510130  RH  026%=      5-min Rain = 0
KAHS 112338Z 16009KT 35/13 A2997 RMK A01 T03510129  RH  026%=      5-min Rain = 0
KAHS 112339Z 14010KT 35/13 A2997 RMK A01 T03520131  RH  027%=      5-min Rain = 0
KAHS 112340Z 14014KT 35/13 A2997 RMK A01 T03520133  RH  027%=      5-min Rain = 0
KAHS 112341Z 15011KT 35/13 A2997 RMK A01 T03510133  RH  027%=      5-min Rain = 0
KAHS 112342Z 15010KT 35/14 A2997 RMK A01 T03520136  RH  027%=      5-min Rain = 0
KAHS 112343Z 15009KT 35/14 A2997 RMK A01 T03540137  RH  027%=      5-min Rain = 0
KAHS 112344Z 15009KT 36/14 A2997 RMK A01 T03560136  RH  027%=      5-min Rain = 0
KAHS 112345Z 16011KT 36/13 A2997 RMK A01 T03560134  RH  026%=      5-min Rain = 0
KAHS 112346Z 16011KT 35/13 A2997 RMK A01 T03530133  RH  027%=      5-min Rain = 0
KAHS 112347Z 17012KT 35/13 A2997 RMK A01 T03510133  RH  027%=      5-min Rain = 0
KAHS 112348Z 16011KT 35/13 A2997 RMK A01 T03490132  RH  027%=      5-min Rain = 0
KAHS 112349Z 15009KT 35/13 A2997 RMK A01 T03490134  RH  027%=      5-min Rain = 0
KAHS 112350Z 15010KT 35/14 A2997 RMK A01 T03500136  RH  028%=      5-min Rain = 0
KAHS 112351Z 14010KT 35/14 A2997 RMK A01 T03520137  RH  028%=      5-min Rain = 0
KAHS 112352Z 14008KT 35/14 A2997 RMK A01 T03500136  RH  028%=      5-min Rain = 0
KAHS 112353Z 13009KT 35/14 A2997 RMK A01 T03500135  RH  028%=      5-min Rain = 0
KAHS 112354Z 13008KT 35/13 A2997 RMK A01 T03470132  RH  028%=      5-min Rain = 0
KAHS 112355Z 15009KT 35/13 A2997 RMK A01 T03450133  RH  028%=      5-min Rain = 0
KAHS 112356Z 15009KT 34/13 A2997 RMK A01 T03440134  RH  028%=      5-min Rain = 0
KAHS 112357Z 15009KT 34/14 A2997 RMK A01 T03440138  RH  029%=      5-min Rain = 0
KAHS 112358Z 15011KT 34/14 A2997 RMK A01 T03430139  RH  029%=      5-min Rain = 0
KAHS 112359Z 17010KT 34/14 A2997 RMK A01 T03430137  RH  029%=      5-min Rain = 0
KAHS 120000Z 17014KT 34/13 A2997 RMK A01 T03430134  RH  028%=      5-min Rain = 0
KAHS 120001Z 18010KT 34/13 A2997 RMK A01 T03440134  RH  028%=      5-min Rain = 0
KAHS 120002Z 18009KT 34/13 A2997 RMK A01 T03430133  RH  028%=      5-min Rain = 0
KAHS 120003Z 17008KT 34/13 A2997 RMK A01 T03420133  RH  028%=      5-min Rain = 0
KAHS 120004Z 15011KT 34/14 A2997 RMK A01 T03420135  RH  029%=      5-min Rain = 0
KAHS 120005Z 17007KT 34/14 A2997 RMK A01 T03420136  RH  029%=      5-min Rain = 0
KAHS 120006Z 16009KT 34/14 A2997 RMK A01 T03420135  RH  029%=      5-min Rain = 0
KAHS 120007Z 15009KT 34/14 A2997 RMK A01 T03420135  RH  029%=      5-min Rain = 0
KAHS 120008Z 16010KT 34/13 A2997 RMK A01 T03420134  RH  029%=      5-min Rain = 0
KAHS 120009Z 15010KT 34/13 A2997 RMK A01 T03420134  RH  029%=      5-min Rain = 0
KAHS 120010Z 15008KT 34/14 A2997 RMK A01 T03420135  RH  029%=      5-min Rain = 0
KAHS 120011Z 15010KT 34/13 A2997 RMK A01 T03420133  RH  028%=      5-min Rain = 0
KAHS 120012Z 16008KT 34/13 A2997 RMK A01 T03420132  RH  028%=      5-min Rain = 0
KAHS 120013Z 16009KT 34/13 A2997 RMK A01 T03430132  RH  028%=      5-min Rain = 0
KAHS 120014Z 16011KT 34/13 A2997 RMK A01 T03430131  RH  028%=      5-min Rain = 0
KAHS 120015Z 17010KT 34/13 A2997 RMK A01 T03440130  RH  028%=      5-min Rain = 0
KAHS 120016Z 17011KT 35/13 A2997 RMK A01 T03450131  RH  028%=      5-min Rain = 0
KAHS 120017Z 17011KT 35/13 A2997 RMK A01 T03450132  RH  028%=      5-min Rain = 0
KAHS 120018Z 17011KT 35/13 A2997 RMK A01 T03460131  RH  027%=      5-min Rain = 0
KAHS 120019Z 17009KT 35/13 A2997 RMK A01 T03460132  RH  027%=      5-min Rain = 0
KAHS 120020Z 18008KT 35/13 A2997 RMK A01 T03480132  RH  027%=      5-min Rain = 0
KAHS 120021Z 17009KT 35/13 A2997 RMK A01 T03470132  RH  027%=      5-min Rain = 0
KAHS 120022Z 18009KT 35/13 A2997 RMK A01 T03460131  RH  027%=      5-min Rain = 0
KAHS 120023Z 17010KT 35/13 A2997 RMK A01 T03450130  RH  027%=      5-min Rain = 0
KAHS 120024Z 17011KT 35/13 A2997 RMK A01 T03460131  RH  027%=      5-min Rain = 0
KAHS 120025Z 17009KT 35/13 A2997 RMK A01 T03470130  RH  027%=      5-min Rain = 0
KAHS 120026Z 17010KT 35/13 A2997 RMK A01 T03470131  RH  027%=      5-min Rain = 0
KAHS 120027Z 17011KT 35/13 A2997 RMK A01 T03470130  RH  027%=      5-min Rain = 0
KAHS 120028Z 17009KT 35/13 A2997 RMK A01 T03460130  RH  027%=      5-min Rain = 0
KAHS 120029Z 15009KT 35/13 A2997 RMK A01 T03450133  RH  028%=      5-min Rain = 0
KAHS 120030Z 16009KT 34/13 A2997 RMK A01 T03440133  RH  028%=      5-min Rain = 0
KAHS 120031Z 17007KT 34/13 A2997 RMK A01 T03440133  RH  028%=      5-min Rain = 0
KAHS 120032Z 17006KT 34/13 A2997 RMK A01 T03430132  RH  028%=      5-min Rain = 0
KAHS 120033Z 16006KT 34/13 A2997 RMK A01 T03430133  RH  028%=      5-min Rain = 0
KAHS 120034Z 16009KT 34/13 A2997 RMK A01 T03420133  RH  028%=      5-min Rain = 0
KAHS 120035Z 16008KT 34/13 A2997 RMK A01 T03420132  RH  028%=      5-min Rain = 0
KAHS 120036Z 17008KT 34/13 A2997 RMK A01 T03420132  RH  028%=      5-min Rain = 0
KAHS 120037Z 15010KT 34/13 A2997 RMK A01 T03420132  RH  028%=      5-min Rain = 0
KAHS 120038Z 16007KT 34/13 A2997 RMK A01 T03420132  RH  028%=      5-min Rain = 0
KAHS 120039Z 17006KT 34/13 A2997 RMK A01 T03420132  RH  028%=      5-min Rain = 0
KAHS 120040Z 16008KT 34/13 A2997 RMK A01 T03410132  RH  028%=      5-min Rain = 0
KAHS 120041Z 16007KT 34/13 A2997 RMK A01 T03400132  RH  028%=      5-min Rain = 0
KAHS 120042Z 15006KT 34/13 A2997 RMK A01 T03400133  RH  029%=      5-min Rain = 0
KAHS 120043Z 16007KT 34/13 A2997 RMK A01 T03400133  RH  029%=      5-min Rain = 0
KAHS 120044Z 17007KT 34/13 A2997 RMK A01 T03410134  RH  029%=      5-min Rain = 0
KAHS 120045Z 17009KT 34/13 A2997 RMK A01 T03400133  RH  029%=      5-min Rain = 0
KAHS 120046Z 16009KT 34/13 A2997 RMK A01 T03400133  RH  029%=      5-min Rain = 0
KAHS 120047Z 17009KT 34/13 A2997 RMK A01 T03390133  RH  029%=      5-min Rain = 0
KAHS 120048Z 17007KT 34/13 A2997 RMK A01 T03390133  RH  029%=      5-min Rain = 0
KAHS 120049Z 17009KT 34/13 A2997 RMK A01 T03390133  RH  029%=      5-min Rain = 0
KAHS 120050Z 17010KT 34/13 A2997 RMK A01 T03390133  RH  029%=      5-min Rain = 0
KAHS 120051Z 17010KT 34/13 A2997 RMK A01 T03390133  RH  029%=      5-min Rain = 0
KAHS 120052Z 18010KT 34/13 A2997 RMK A01 T03390134  RH  029%=      5-min Rain = 0
KAHS 120053Z 17010KT 34/13 A2998 RMK A01 T03390134  RH  029%=      5-min Rain = 0
KAHS 120054Z 16009KT 34/13 A2998 RMK A01 T03400134  RH  029%=      5-min Rain = 0
KAHS 120055Z 17007KT 34/14 A2998 RMK A01 T03400136  RH  029%=      5-min Rain = 0
KAHS 120056Z 16009KT 34/14 A2998 RMK A01 T03410135  RH  029%=      5-min Rain = 0
KAHS 120057Z 17009KT 34/14 A2998 RMK A01 T03400135  RH  029%=      5-min Rain = 0
KAHS 120058Z 17011KT 34/14 A2998 RMK A01 T03400135  RH  029%=      5-min Rain = 0
KAHS 120059Z 17009KT 34/13 A2998 RMK A01 T03390134  RH  029%=      5-min Rain = 0
KAHS 120100Z 17010KT 34/13 A2998 RMK A01 T03390134  RH  029%=      5-min Rain = 0
KAHS 120101Z 17011KT 34/13 A2998 RMK A01 T03390133  RH  029%=      5-min Rain = 0
KAHS 120102Z 17008KT 34/13 A2998 RMK A01 T03400134  RH  029%=      5-min Rain = 0
KAHS 120103Z 16008KT 34/13 A2998 RMK A01 T03400134  RH  029%=      5-min Rain = 0
KAHS 120104Z 16009KT 34/13 A2998 RMK A01 T03400134  RH  029%=      5-min Rain = 0
KAHS 120105Z 17008KT 34/13 A2998 RMK A01 T03400134  RH  029%=      5-min Rain = 0
KAHS 120106Z 17008KT 34/14 A2998 RMK A01 T03400135  RH  029%=      5-min Rain = 0
KAHS 120107Z 17007KT 34/14 A2998 RMK A01 T03400135  RH  029%=      5-min Rain = 0
KAHS 120108Z 17009KT 34/14 A2998 RMK A01 T03400135  RH  029%=      5-min Rain = 0
KAHS 120109Z 17010KT 34/14 A2998 RMK A01 T03390135  RH  029%=      5-min Rain = 0
KAHS 120110Z 17008KT 34/14 A2998 RMK A01 T03390135  RH  029%=      5-min Rain = 0
KAHS 120111Z 18009KT 34/14 A2998 RMK A01 T03400135  RH  029%=      5-min Rain = 0
KAHS 120112Z 17007KT 34/14 A2998 RMK A01 T03390135  RH  029%=      5-min Rain = 0
KAHS 120113Z 17006KT 34/14 A2998 RMK A01 T03400135  RH  029%=      5-min Rain = 0
KAHS 120114Z 16007KT 34/14 A2998 RMK A01 T03400136  RH  029%=      5-min Rain = 0
KAHS 120115Z 16008KT 34/14 A2998 RMK A01 T03400136  RH  029%=      5-min Rain = 0
KAHS 120116Z 16007KT 34/14 A2998 RMK A01 T03400135  RH  029%=      5-min Rain = 0
KAHS 120117Z 17010KT 34/14 A2998 RMK A01 T03400135  RH  029%=      5-min Rain = 0
KAHS 120118Z 17008KT 34/14 A2998 RMK A01 T03390135  RH  029%=      5-min Rain = 0
KAHS 120119Z 16007KT 34/14 A2998 RMK A01 T03390136  RH  029%=      5-min Rain = 0
KAHS 120120Z 16007KT 34/14 A2998 RMK A01 T03390136  RH  030%=      5-min Rain = 0
KAHS 120121Z 15008KT 34/14 A2998 RMK A01 T03380137  RH  030%=      5-min Rain = 0
KAHS 120122Z 16007KT 34/14 A2998 RMK A01 T03380138  RH  030%=      5-min Rain = 0
KAHS 120123Z 17008KT 34/14 A2998 RMK A01 T03370137  RH  030%=      5-min Rain = 0
KAHS 120124Z 16007KT 34/14 A2998 RMK A01 T03370136  RH  030%=      5-min Rain = 0
KAHS 120125Z 16007KT 34/14 A2998 RMK A01 T03370136  RH  030%=      5-min Rain = 0
KAHS 120126Z 16010KT 34/14 A2998 RMK A01 T03370136  RH  030%=      5-min Rain = 0
KAHS 120127Z 16009KT 34/14 A2998 RMK A01 T03360135  RH  030%=      5-min Rain = 0
KAHS 120128Z 16009KT 34/13 A2998 RMK A01 T03360134  RH  030%=      5-min Rain = 0
KAHS 120129Z 16009KT 34/13 A2998 RMK A01 T03360134  RH  030%=      5-min Rain = 0
KAHS 120130Z 16006KT 34/13 A2998 RMK A01 T03350134  RH  030%=      5-min Rain = 0
KAHS 120131Z 16007KT 34/14 A2998 RMK A01 T03350135  RH  030%=      5-min Rain = 0
KAHS 120132Z 17007KT 34/14 A2998 RMK A01 T03350135  RH  030%=      5-min Rain = 0
KAHS 120133Z 16006KT 34/14 A2998 RMK A01 T03350135  RH  030%=      5-min Rain = 0
KAHS 120134Z 17007KT 33/14 A2998 RMK A01 T03340135  RH  030%=      5-min Rain = 0
KAHS 120135Z 16006KT 33/14 A2998 RMK A01 T03340136  RH  030%=      5-min Rain = 0
KAHS 120136Z 16006KT 33/14 A2998 RMK A01 T03330136  RH  030%=      5-min Rain = 0
KAHS 120137Z 16006KT 33/14 A2998 RMK A01 T03330138  RH  031%=      5-min Rain = 0
KAHS 120138Z 17006KT 33/14 A2998 RMK A01 T03330137  RH  031%=      5-min Rain = 0
KAHS 120139Z 16005KT 33/14 A2998 RMK A01 T03330137  RH  031%=      5-min Rain = 0
KAHS 120140Z 16005KT 33/14 A2998 RMK A01 T03320137  RH  031%=      5-min Rain = 0
KAHS 120141Z 16008KT 33/14 A2998 RMK A01 T03320137  RH  031%=      5-min Rain = 0
KAHS 120142Z 16007KT 33/14 A2998 RMK A01 T03320136  RH  031%=      5-min Rain = 0
KAHS 120143Z 16006KT 33/14 A2998 RMK A01 T03320138  RH  031%=      5-min Rain = 0
KAHS 120144Z 16006KT 33/14 A2998 RMK A01 T03320139  RH  031%=      5-min Rain = 0
KAHS 120145Z 15006KT 33/14 A2998 RMK A01 T03320138  RH  031%=      5-min Rain = 0
KAHS 120146Z 15005KT 33/14 A2998 RMK A01 T03310139  RH  031%=      5-min Rain = 0
KAHS 120147Z 16006KT 33/14 A2999 RMK A01 T03310140  RH  032%=      5-min Rain = 0
KAHS 120148Z 16007KT 33/14 A2999 RMK A01 T03310140  RH  031%=      5-min Rain = 0
KAHS 120149Z 16007KT 33/14 A2999 RMK A01 T03300139  RH  032%=      5-min Rain = 0
KAHS 120150Z 16005KT 33/14 A2999 RMK A01 T03300140  RH  032%=      5-min Rain = 0
KAHS 120151Z 16007KT 33/14 A2999 RMK A01 T03300140  RH  032%=      5-min Rain = 0
KAHS 120152Z 16006KT 33/14 A2999 RMK A01 T03300140  RH  032%=      5-min Rain = 0
KAHS 120153Z 16006KT 33/14 A2999 RMK A01 T03300140  RH  032%=      5-min Rain = 0
KAHS 120154Z 16006KT 33/14 A2999 RMK A01 T03290140  RH  032%=      5-min Rain = 0
KAHS 120155Z 16005KT 33/14 A2999 RMK A01 T03290141  RH  032%=      5-min Rain = 0
KAHS 120156Z 16005KT 33/14 A2999 RMK A01 T03290140  RH  032%=      5-min Rain = 0
KAHS 120157Z 16005KT 33/14 A2999 RMK A01 T03290141  RH  032%=      5-min Rain = 0
KAHS 120158Z 16006KT 33/14 A2999 RMK A01 T03280141  RH  032%=      5-min Rain = 0
KAHS 120159Z 16005KT 33/14 A2999 RMK A01 T03280141  RH  032%=      5-min Rain = 0
KAHS 120200Z 16005KT 33/14 A2999 RMK A01 T03280141  RH  032%=      5-min Rain = 0
KAHS 120201Z 16005KT 33/14 A2999 RMK A01 T03280141  RH  032%=      5-min Rain = 0
KAHS 120202Z 16006KT 33/14 A2999 RMK A01 T03280141  RH  032%=      5-min Rain = 0
KAHS 120203Z 17006KT 33/14 A2999 RMK A01 T03280140  RH  032%=      5-min Rain = 0
KAHS 120204Z 16004KT 33/14 A2999 RMK A01 T03280140  RH  032%=      5-min Rain = 0
KAHS 120205Z 16005KT 33/14 A2999 RMK A01 T03270141  RH  032%=      5-min Rain = 0
KAHS 120206Z 17005KT 33/14 A2999 RMK A01 T03270140  RH  032%=      5-min Rain = 0
KAHS 120207Z 17005KT 33/14 A2999 RMK A01 T03270141  RH  032%=      5-min Rain = 0
KAHS 120208Z 16006KT 33/14 A2999 RMK A01 T03260140  RH  032%=      5-min Rain = 0
KAHS 120209Z 16005KT 33/14 A2999 RMK A01 T03260139  RH  032%=      5-min Rain = 0
KAHS 120210Z 16005KT 33/14 A2999 RMK A01 T03260140  RH  032%=      5-min Rain = 0
KAHS 120211Z 16006KT 33/14 A2999 RMK A01 T03260140  RH  032%=      5-min Rain = 0
KAHS 120212Z 16006KT 33/14 A2999 RMK A01 T03260140  RH  032%=      5-min Rain = 0
KAHS 120213Z 16005KT 33/14 A2999 RMK A01 T03250140  RH  032%=      5-min Rain = 0
KAHS 120214Z 16004KT 33/14 A2999 RMK A01 T03250140  RH  033%=      5-min Rain = 0
KAHS 120215Z 16004KT 32/14 A2999 RMK A01 T03240140  RH  033%=      5-min Rain = 0
KAHS 120216Z 16004KT 32/14 A2999 RMK A01 T03240140  RH  033%=      5-min Rain = 0
KAHS 120217Z 15004KT 32/14 A2999 RMK A01 T03240140  RH  033%=      5-min Rain = 0
KAHS 120218Z 15004KT 32/14 A2999 RMK A01 T03240141  RH  033%=      5-min Rain = 0
KAHS 120219Z 15004KT 32/14 A2999 RMK A01 T03230140  RH  033%=      5-min Rain = 0
KAHS 120220Z 15004KT 32/14 A2999 RMK A01 T03220141  RH  033%=      5-min Rain = 0
KAHS 120221Z 15004KT 32/14 A30 RMK A01 T03220141  RH  033%=      5-min Rain = 0
KAHS 120222Z 15004KT 32/14 A30 RMK A01 T03210142  RH  034%=      5-min Rain = 0
KAHS 120223Z 15005KT 32/14 A30 RMK A01 T03210143  RH  034%=      5-min Rain = 0
KAHS 120224Z 15004KT 32/14 A30 RMK A01 T03210144  RH  034%=      5-min Rain = 0
KAHS 120225Z 15004KT 32/15 A30 RMK A01 T03200145  RH  035%=      5-min Rain = 0
KAHS 120226Z 15004KT 32/15 A30 RMK A01 T03200145  RH  035%=      5-min Rain = 0
KAHS 120227Z 15004KT 32/15 A30 RMK A01 T03190145  RH  035%=      5-min Rain = 0
KAHS 120228Z 15005KT 32/15 A30 RMK A01 T03190145  RH  035%=      5-min Rain = 0
KAHS 120229Z 15004KT 32/15 A30 RMK A01 T03180145  RH  035%=      5-min Rain = 0
KAHS 120230Z 15004KT 32/15 A30 RMK A01 T03180145  RH  035%=      5-min Rain = 0
KAHS 120231Z 15004KT 32/15 A30 RMK A01 T03180146  RH  035%=      5-min Rain = 0
KAHS 120232Z 15004KT 32/15 A30 RMK A01 T03170146  RH  036%=      5-min Rain = 0
KAHS 120233Z 15004KT 32/15 A30 RMK A01 T03170147  RH  036%=      5-min Rain = 0
KAHS 120234Z 15004KT 32/15 A30 RMK A01 T03160147  RH  036%=      5-min Rain = 0
KAHS 120235Z 15004KT 32/15 A30 RMK A01 T03160147  RH  036%=      5-min Rain = 0
KAHS 120236Z 15004KT 32/15 A30 RMK A01 T03160147  RH  036%=      5-min Rain = 0
KAHS 120237Z 16004KT 32/15 A30 RMK A01 T03160147  RH  036%=      5-min Rain = 0
KAHS 120238Z 15004KT 32/15 A30 RMK A01 T03160147  RH  036%=      5-min Rain = 0
KAHS 120239Z 15005KT 32/15 A30 RMK A01 T03160147  RH  036%=      5-min Rain = 0
KAHS 120240Z 15004KT 32/15 A30 RMK A01 T03160148  RH  036%=      5-min Rain = 0
KAHS 120241Z 15004KT 32/15 A30 RMK A01 T03150149  RH  036%=      5-min Rain = 0
KAHS 120242Z 16005KT 32/15 A30 RMK A01 T03150148  RH  036%=      5-min Rain = 0
KAHS 120243Z 15004KT 32/15 A30 RMK A01 T03150148  RH  036%=      5-min Rain = 0
KAHS 120244Z 15005KT 32/15 A3001 RMK A01 T03150149  RH  037%=      5-min Rain = 0
KAHS 120245Z 15004KT 32/15 A3001 RMK A01 T03150149  RH  037%=      5-min Rain = 0
KAHS 120246Z 15004KT 31/15 A3001 RMK A01 T03140149  RH  037%=      5-min Rain = 0
KAHS 120247Z 16005KT 31/15 A3001 RMK A01 T03140148  RH  037%=      5-min Rain = 0
KAHS 120248Z 15005KT 31/15 A3001 RMK A01 T03140148  RH  036%=      5-min Rain = 0
KAHS 120249Z 15005KT 31/15 A3001 RMK A01 T03140148  RH  036%=      5-min Rain = 0
KAHS 120250Z 15004KT 31/15 A3001 RMK A01 T03140148  RH  037%=      5-min Rain = 0
KAHS 120251Z 15005KT 31/15 A3001 RMK A01 T03140148  RH  037%=      5-min Rain = 0
KAHS 120252Z 15005KT 31/15 A3001 RMK A01 T03130147  RH  037%=      5-min Rain = 0
KAHS 120253Z 15004KT 31/15 A3001 RMK A01 T03130147  RH  037%=      5-min Rain = 0
KAHS 120254Z 16004KT 31/15 A3001 RMK A01 T03130147  RH  037%=      5-min Rain = 0
KAHS 120255Z 16006KT 31/15 A3001 RMK A01 T03130147  RH  037%=      5-min Rain = 0
KAHS 120256Z 16005KT 31/15 A3001 RMK A01 T03130147  RH  037%=      5-min Rain = 0
KAHS 120257Z 15004KT 31/15 A3001 RMK A01 T03130147  RH  037%=      5-min Rain = 0
KAHS 120258Z 15004KT 31/15 A3001 RMK A01 T03120147  RH  037%=      5-min Rain = 0
KAHS 120259Z 15005KT 31/15 A3001 RMK A01 T03120147  RH  037%=      5-min Rain = 0
KAHS 120300Z 15005KT 31/15 A3001 RMK A01 T03120147  RH  037%=      5-min Rain = 0
KAHS 120301Z 16005KT 31/15 A3001 RMK A01 T03120147  RH  037%=      5-min Rain = 0
KAHS 120302Z 15005KT 31/15 A3001 RMK A01 T03110147  RH  037%=      5-min Rain = 0
KAHS 120303Z 15005KT 31/15 A3001 RMK A01 T03110147  RH  037%=      5-min Rain = 0
KAHS 120304Z 16005KT 31/15 A3001 RMK A01 T03110147  RH  037%=      5-min Rain = 0
KAHS 120305Z 16004KT 31/15 A3001 RMK A01 T03110147  RH  037%=      5-min Rain = 0
KAHS 120306Z 16004KT 31/15 A3001 RMK A01 T03100147  RH  037%=      5-min Rain = 0
KAHS 120307Z 16004KT 31/15 A3001 RMK A01 T03100146  RH  037%=      5-min Rain = 0
KAHS 120308Z 17005KT 31/15 A3001 RMK A01 T03100145  RH  037%=      5-min Rain = 0
KAHS 120309Z 17005KT 31/14 A3001 RMK A01 T03100144  RH  036%=      5-min Rain = 0
KAHS 120310Z 17005KT 31/14 A3001 RMK A01 T03100144  RH  036%=      5-min Rain = 0
KAHS 120311Z 17005KT 31/14 A3001 RMK A01 T03110143  RH  036%=      5-min Rain = 0
KAHS 120312Z 17005KT 31/14 A3001 RMK A01 T03110142  RH  036%=      5-min Rain = 0
KAHS 120313Z 17005KT 31/14 A3002 RMK A01 T03120143  RH  036%=      5-min Rain = 0
KAHS 120314Z 17004KT 31/14 A3002 RMK A01 T03120143  RH  036%=      5-min Rain = 0
KAHS 120315Z 17004KT 31/14 A3002 RMK A01 T03110143  RH  036%=      5-min Rain = 0
KAHS 120316Z 17004KT 31/14 A3002 RMK A01 T03110143  RH  036%=      5-min Rain = 0
KAHS 120317Z 17005KT 31/14 A3002 RMK A01 T03110143  RH  036%=      5-min Rain = 0
KAHS 120318Z 17003KT 31/14 A3002 RMK A01 T03110143  RH  036%=      5-min Rain = 0
KAHS 120319Z 17004KT 31/14 A3002 RMK A01 T03110144  RH  036%=      5-min Rain = 0
KAHS 120320Z 17004KT 31/14 A3002 RMK A01 T03110144  RH  036%=      5-min Rain = 0
KAHS 120321Z 17004KT 31/14 A3002 RMK A01 T03100144  RH  036%=      5-min Rain = 0
KAHS 120322Z 17003KT 31/14 A3002 RMK A01 T03100144  RH  036%=      5-min Rain = 0
KAHS 120323Z 17003KT 31/14 A3002 RMK A01 T03100144  RH  037%=      5-min Rain = 0
KAHS 120324Z 17004KT 31/15 A3002 RMK A01 T03100145  RH  037%=      5-min Rain = 0
KAHS 120325Z 17004KT 31/15 A3002 RMK A01 T03090145  RH  037%=      5-min Rain = 0
KAHS 120326Z 17004KT 31/15 A3003 RMK A01 T03090145  RH  037%=      5-min Rain = 0
KAHS 120327Z 17003KT 31/15 A3003 RMK A01 T03080145  RH  037%=      5-min Rain = 0
KAHS 120328Z 17003KT 31/15 A3003 RMK A01 T03080145  RH  037%=      5-min Rain = 0
KAHS 120329Z 17003KT 31/15 A3003 RMK A01 T03070145  RH  037%=      5-min Rain = 0
KAHS 120330Z 16003KT 31/15 A3003 RMK A01 T03070145  RH  037%=      5-min Rain = 0
KAHS 120331Z 15003KT 31/15 A3003 RMK A01 T03070145  RH  037%=      5-min Rain = 0
KAHS 120332Z 16003KT 31/15 A3003 RMK A01 T03070145  RH  037%=      5-min Rain = 0
KAHS 120333Z 15003KT 31/15 A3003 RMK A01 T03060145  RH  038%=      5-min Rain = 0
KAHS 120334Z 15003KT 31/15 A3003 RMK A01 T03060145  RH  038%=      5-min Rain = 0
KAHS 120335Z 15004KT 31/15 A3003 RMK A01 T03060145  RH  038%=      5-min Rain = 0
KAHS 120336Z 15004KT 31/15 A3003 RMK A01 T03060146  RH  038%=      5-min Rain = 0
KAHS 120337Z 15005KT 31/15 A3003 RMK A01 T03060147  RH  038%=      5-min Rain = 0
KAHS 120338Z 15005KT 31/15 A3003 RMK A01 T03060148  RH  038%=      5-min Rain = 0
KAHS 120339Z 15005KT 31/15 A3003 RMK A01 T03060148  RH  038%=      5-min Rain = 0
KAHS 120340Z 15005KT 31/15 A3004 RMK A01 T03060148  RH  038%=      5-min Rain = 0
KAHS 120341Z 14004KT 31/15 A3004 RMK A01 T03050148  RH  038%=      5-min Rain = 0
KAHS 120342Z 14004KT 31/15 A3004 RMK A01 T03050149  RH  039%=      5-min Rain = 0
KAHS 120343Z 14005KT 31/15 A3004 RMK A01 T03050151  RH  039%=      5-min Rain = 0
KAHS 120344Z 14005KT 31/15 A3004 RMK A01 T03050151  RH  039%=      5-min Rain = 0
KAHS 120345Z 14004KT 31/15 A3004 RMK A01 T03050150  RH  039%=      5-min Rain = 0
KAHS 120346Z 14005KT 31/15 A3004 RMK A01 T03050150  RH  039%=      5-min Rain = 0
KAHS 120347Z 14005KT 31/15 A3004 RMK A01 T03050150  RH  039%=      5-min Rain = 0
KAHS 120348Z 14005KT 31/15 A3004 RMK A01 T03050150  RH  039%=      5-min Rain = 0
KAHS 120349Z 14005KT 31/15 A3003 RMK A01 T03050150  RH  039%=      5-min Rain = 0
KAHS 120350Z 15004KT 30/15 A3003 RMK A01 T03040150  RH  039%=      5-min Rain = 0
KAHS 120351Z 15004KT 30/15 A3003 RMK A01 T03040151  RH  039%=      5-min Rain = 0
KAHS 120352Z 15004KT 30/15 A3004 RMK A01 T03030151  RH  039%=      5-min Rain = 0
KAHS 120353Z 15004KT 30/15 A3004 RMK A01 T03030151  RH  040%=      5-min Rain = 0
KAHS 120354Z 15004KT 30/15 A3004 RMK A01 T03030151  RH  040%=      5-min Rain = 0
KAHS 120355Z 15004KT 30/15 A3004 RMK A01 T03020150  RH  040%=      5-min Rain = 0
KAHS 120356Z 14004KT 30/15 A3004 RMK A01 T03020150  RH  040%=      5-min Rain = 0
KAHS 120357Z 15004KT 30/15 A3004 RMK A01 T03020150  RH  040%=      5-min Rain = 0
KAHS 120358Z 15004KT 30/15 A3004 RMK A01 T03010150  RH  040%=      5-min Rain = 0
KAHS 120359Z 15004KT 30/15 A3004 RMK A01 T03010150  RH  040%=      5-min Rain = 0
KAHS 120400Z 15004KT 30/15 A3004 RMK A01 T03010149  RH  040%=      5-min Rain = 0
KAHS 120401Z 15005KT 30/15 A3004 RMK A01 T03010149  RH  039%=      5-min Rain = 0
KAHS 120402Z 15005KT 30/15 A3004 RMK A01 T03010148  RH  039%=      5-min Rain = 0
KAHS 120403Z 16005KT 30/15 A3004 RMK A01 T03010148  RH  039%=      5-min Rain = 0
KAHS 120404Z 16004KT 30/15 A3004 RMK A01 T03010149  RH  039%=      5-min Rain = 0
KAHS 120405Z 15004KT 30/15 A3004 RMK A01 T03010149  RH  040%=      5-min Rain = 0
KAHS 120406Z 15004KT 30/15 A3004 RMK A01 T03010149  RH  040%=      5-min Rain = 0
KAHS 120407Z 16004KT 30/15 A3004 RMK A01 T03010149  RH  040%=      5-min Rain = 0
KAHS 120408Z 15003KT 30/15 A3004 RMK A01 T03010150  RH  040%=      5-min Rain = 0
KAHS 120409Z 16004KT 30/15 A3004 RMK A01 T03010149  RH  040%=      5-min Rain = 0
KAHS 120410Z 16003KT 30/15 A3004 RMK A01 T03010150  RH  040%=      5-min Rain = 0
KAHS 120411Z 15003KT 30/15 A3004 RMK A01 T03000150  RH  040%=      5-min Rain = 0
KAHS 120412Z 15003KT 30/15 A3004 RMK A01 T03000149  RH  040%=      5-min Rain = 0
KAHS 120413Z 15004KT 30/15 A3004 RMK A01 T03000148  RH  040%=      5-min Rain = 0
KAHS 120414Z 14003KT 30/15 A3004 RMK A01 T03000148  RH  040%=      5-min Rain = 0
KAHS 120415Z 14004KT 30/15 A3004 RMK A01 T03010148  RH  040%=      5-min Rain = 0
KAHS 120416Z 14004KT 30/15 A3004 RMK A01 T03010148  RH  040%=      5-min Rain = 0
KAHS 120417Z 14004KT 30/15 A3004 RMK A01 T03010148  RH  039%=      5-min Rain = 0
KAHS 120418Z 14004KT 30/15 A3004 RMK A01 T03010149  RH  040%=      5-min Rain = 0
KAHS 120419Z 14005KT 30/15 A3004 RMK A01 T03010149  RH  040%=      5-min Rain = 0
KAHS 120420Z 14005KT 30/15 A3004 RMK A01 T03010149  RH  040%=      5-min Rain = 0
KAHS 120421Z 14005KT 30/15 A3004 RMK A01 T03010150  RH  040%=      5-min Rain = 0
KAHS 120422Z 14005KT 30/15 A3004 RMK A01 T03010151  RH  040%=      5-min Rain = 0
KAHS 120423Z 14005KT 30/15 A3004 RMK A01 T03010151  RH  040%=      5-min Rain = 0
KAHS 120424Z 14005KT 30/15 A3004 RMK A01 T03010151  RH  040%=      5-min Rain = 0
KAHS 120425Z 14005KT 30/15 A3004 RMK A01 T03000151  RH  040%=      5-min Rain = 0
KAHS 120426Z 14004KT 30/15 A3004 RMK A01 T02990151  RH  040%=      5-min Rain = 0
KAHS 120427Z 14004KT 30/15 A3004 RMK A01 T02990151  RH  041%=      5-min Rain = 0
KAHS 120428Z 14005KT 30/15 A3004 RMK A01 T02990150  RH  040%=      5-min Rain = 0
KAHS 120429Z 14004KT 30/15 A3004 RMK A01 T02990149  RH  040%=      5-min Rain = 0
KAHS 120430Z 14005KT 30/15 A3004 RMK A01 T02980148  RH  040%=      5-min Rain = 0
KAHS 120431Z 14005KT 30/15 A3004 RMK A01 T02980147  RH  040%=      5-min Rain = 0
KAHS 120432Z 14005KT 30/15 A3004 RMK A01 T02980147  RH  040%=      5-min Rain = 0
KAHS 120433Z 13005KT 30/15 A3004 RMK A01 T02980147  RH  040%=      5-min Rain = 0
KAHS 120434Z 13005KT 30/15 A3004 RMK A01 T02970147  RH  040%=      5-min Rain = 0
KAHS 120435Z 12005KT 30/15 A3004 RMK A01 T02970146  RH  040%=      5-min Rain = 0
KAHS 120436Z 11005KT 30/15 A3004 RMK A01 T02970146  RH  040%=      5-min Rain = 0
KAHS 120437Z 11005KT 30/15 A3004 RMK A01 T02970147  RH  040%=      5-min Rain = 0
KAHS 120438Z 11005KT 30/15 A3004 RMK A01 T02960149  RH  041%=      5-min Rain = 0
KAHS 120439Z 12004KT 30/15 A3004 RMK A01 T02960150  RH  041%=      5-min Rain = 0
KAHS 120440Z 12004KT 30/15 A3004 RMK A01 T02960150  RH  041%=      5-min Rain = 0
KAHS 120441Z 12004KT 30/15 A3004 RMK A01 T02950149  RH  041%=      5-min Rain = 0
KAHS 120442Z 12005KT 30/15 A3004 RMK A01 T02950147  RH  041%=      5-min Rain = 0
KAHS 120443Z 13004KT 30/15 A3004 RMK A01 T02950146  RH  040%=      5-min Rain = 0
KAHS 120444Z 13004KT 30/15 A3004 RMK A01 T02950147  RH  041%=      5-min Rain = 0
KAHS 120445Z 13004KT 29/15 A3004 RMK A01 T02940147  RH  041%=      5-min Rain = 0
KAHS 120446Z 13004KT 29/15 A3004 RMK A01 T02940147  RH  041%=      5-min Rain = 0
KAHS 120447Z 13005KT 29/15 A3004 RMK A01 T02940146  RH  041%=      5-min Rain = 0
KAHS 120448Z 14005KT 29/14 A3004 RMK A01 T02940144  RH  040%=      5-min Rain = 0
KAHS 120449Z 14004KT 29/15 A3004 RMK A01 T02940145  RH  040%=      5-min Rain = 0
KAHS 120450Z 14004KT 29/15 A3004 RMK A01 T02940145  RH  040%=      5-min Rain = 0
KAHS 120451Z 13005KT 29/15 A3004 RMK A01 T02940145  RH  040%=      5-min Rain = 0
KAHS 120452Z 14004KT 29/15 A3004 RMK A01 T02940145  RH  040%=      5-min Rain = 0
KAHS 120453Z 14005KT 29/14 A3004 RMK A01 T02930144  RH  040%=      5-min Rain = 0
KAHS 120454Z 14005KT 29/14 A3004 RMK A01 T02930144  RH  040%=      5-min Rain = 0
KAHS 120455Z 14005KT 29/14 A3004 RMK A01 T02930144  RH  040%=      5-min Rain = 0
KAHS 120456Z 14005KT 29/14 A3004 RMK A01 T02930144  RH  040%=      5-min Rain = 0
KAHS 120457Z 13005KT 29/14 A3004 RMK A01 T02930144  RH  040%=      5-min Rain = 0
KAHS 120458Z 13005KT 29/14 A3004 RMK A01 T02930144  RH  040%=      5-min Rain = 0
KAHS 120459Z 13005KT 29/14 A3004 RMK A01 T02920144  RH  040%=      5-min Rain = 0
KAHS 120500Z 13004KT 29/14 A3004 RMK A01 T02920144  RH  040%=      5-min Rain = 0

Page generated in 0.0735 seconds.